<?xml version="1.0" encoding="UTF-8" standalone="no" ?>
<gpx xmlns="http://www.topografix.com/GPX/1/1" xmlns:xsi="http://www.w3.org/2001/XMLSchema-instance" xsi:schemaLocation="http://www.topografix.com/GPX/1/1 http://www.topografix.com/GPX/1/1/gpx.xsd" version="1.1" creator="VisuGPX - https://www.visugpx.com">
  <metadata>
    <name>64 - PEDESTRE - GR 108 de Laruns à Eaux-Chaudes - Entretien balisage</name>
    <desc><![CDATA[Soleil itinéraire coupé par une avalanche]]></desc>
  </metadata>
  <wpt lat="42.97071" lon="-0.43786">
    <ele>621.61328125</ele>
    <name><![CDATA[012]]></name>
    <desc><![CDATA[10-MAI-15 14:27:38]]></desc>
    <cmt><![CDATA[10-MAI-15 14:27:38]]></cmt>
  </wpt>
  <wpt lat="42.96802" lon="-0.43766">
    <ele>667.99682617188</ele>
    <name><![CDATA[013]]></name>
    <desc><![CDATA[10-MAI-15 16:10:06]]></desc>
    <cmt><![CDATA[10-MAI-15 16:10:06]]></cmt>
  </wpt>
  <wpt lat="42.97042" lon="-0.43814">
    <ele>625.93920898438</ele>
    <name><![CDATA[014]]></name>
    <desc><![CDATA[10-MAI-15 16:39:21]]></desc>
    <cmt><![CDATA[10-MAI-15 16:39:21]]></cmt>
  </wpt>
  <trk>
    <name><![CDATA[ACTIVE LOG 018]]></name>
    <trkseg>
      <trkpt lat="42.98211" lon="-0.42679">
        <ele>581.73486328125</ele>
        <time>2015-05-10T11:34:42Z</time>
      </trkpt>
      <trkpt lat="42.98211" lon="-0.42676">
        <ele>581.73486328125</ele>
        <time>2015-05-10T11:34:43Z</time>
      </trkpt>
      <trkpt lat="42.98212" lon="-0.42676">
        <ele>580.77368164062</ele>
        <time>2015-05-10T11:34:44Z</time>
      </trkpt>
      <trkpt lat="42.98209" lon="-0.42671">
        <ele>575.486328125</ele>
        <time>2015-05-10T11:34:49Z</time>
      </trkpt>
      <trkpt lat="42.98205" lon="-0.42667">
        <ele>571.64086914062</ele>
        <time>2015-05-10T11:34:54Z</time>
      </trkpt>
      <trkpt lat="42.98205" lon="-0.42666">
        <ele>571.64086914062</ele>
        <time>2015-05-10T11:34:55Z</time>
      </trkpt>
      <trkpt lat="42.98204" lon="-0.42663">
        <ele>569.23779296875</ele>
        <time>2015-05-10T11:34:58Z</time>
      </trkpt>
      <trkpt lat="42.98202" lon="-0.42657">
        <ele>565.87329101562</ele>
        <time>2015-05-10T11:35:03Z</time>
      </trkpt>
      <trkpt lat="42.98199" lon="-0.42652">
        <ele>563.46997070312</ele>
        <time>2015-05-10T11:35:07Z</time>
      </trkpt>
      <trkpt lat="42.98197" lon="-0.4265">
        <ele>562.02807617188</ele>
        <time>2015-05-10T11:35:09Z</time>
      </trkpt>
      <trkpt lat="42.98194" lon="-0.42644">
        <ele>559.14404296875</ele>
        <time>2015-05-10T11:35:15Z</time>
      </trkpt>
      <trkpt lat="42.98188" lon="-0.42629">
        <ele>556.26000976562</ele>
        <time>2015-05-10T11:35:26Z</time>
      </trkpt>
      <trkpt lat="42.98176" lon="-0.42613">
        <ele>553.3759765625</ele>
        <time>2015-05-10T11:35:42Z</time>
      </trkpt>
      <trkpt lat="42.98157" lon="-0.42609">
        <ele>552.41455078125</ele>
        <time>2015-05-10T11:35:58Z</time>
      </trkpt>
      <trkpt lat="42.98142" lon="-0.426">
        <ele>554.81787109375</ele>
        <time>2015-05-10T11:36:15Z</time>
      </trkpt>
      <trkpt lat="42.98139" lon="-0.42598">
        <ele>555.29858398438</ele>
        <time>2015-05-10T11:36:20Z</time>
      </trkpt>
      <trkpt lat="42.98125" lon="-0.42591">
        <ele>556.74072265625</ele>
        <time>2015-05-10T11:36:37Z</time>
      </trkpt>
      <trkpt lat="42.98113" lon="-0.42586">
        <ele>558.66333007812</ele>
        <time>2015-05-10T11:36:50Z</time>
      </trkpt>
      <trkpt lat="42.98108" lon="-0.42577">
        <ele>559.62475585938</ele>
        <time>2015-05-10T11:37:01Z</time>
      </trkpt>
      <trkpt lat="42.98096" lon="-0.4257">
        <ele>562.50854492188</ele>
        <time>2015-05-10T11:37:14Z</time>
      </trkpt>
      <trkpt lat="42.98086" lon="-0.42565">
        <ele>564.43115234375</ele>
        <time>2015-05-10T11:37:29Z</time>
      </trkpt>
      <trkpt lat="42.9807" lon="-0.42562">
        <ele>566.35375976562</ele>
        <time>2015-05-10T11:37:45Z</time>
      </trkpt>
      <trkpt lat="42.98066" lon="-0.42562">
        <ele>565.87329101562</ele>
        <time>2015-05-10T11:38:07Z</time>
      </trkpt>
      <trkpt lat="42.98068" lon="-0.42559">
        <ele>566.35375976562</ele>
        <time>2015-05-10T11:38:30Z</time>
      </trkpt>
      <trkpt lat="42.98069" lon="-0.4256">
        <ele>566.35375976562</ele>
        <time>2015-05-10T11:38:55Z</time>
      </trkpt>
      <trkpt lat="42.98068" lon="-0.42562">
        <ele>566.83447265625</ele>
        <time>2015-05-10T11:39:37Z</time>
      </trkpt>
      <trkpt lat="42.98068" lon="-0.42565">
        <ele>567.31518554688</ele>
        <time>2015-05-10T11:40:14Z</time>
      </trkpt>
      <trkpt lat="42.98057" lon="-0.42563">
        <ele>568.75708007812</ele>
        <time>2015-05-10T11:40:25Z</time>
      </trkpt>
      <trkpt lat="42.98039" lon="-0.4256">
        <ele>571.64086914062</ele>
        <time>2015-05-10T11:40:40Z</time>
      </trkpt>
      <trkpt lat="42.98015" lon="-0.42559">
        <ele>573.08325195312</ele>
        <time>2015-05-10T11:41:00Z</time>
      </trkpt>
      <trkpt lat="42.98008" lon="-0.42559">
        <ele>575.005859375</ele>
        <time>2015-05-10T11:41:06Z</time>
      </trkpt>
      <trkpt lat="42.97998" lon="-0.42558">
        <ele>577.4091796875</ele>
        <time>2015-05-10T11:41:15Z</time>
      </trkpt>
      <trkpt lat="42.97985" lon="-0.4256">
        <ele>579.33154296875</ele>
        <time>2015-05-10T11:41:26Z</time>
      </trkpt>
      <trkpt lat="42.9798" lon="-0.42564">
        <ele>580.77368164062</ele>
        <time>2015-05-10T11:41:31Z</time>
      </trkpt>
      <trkpt lat="42.97961" lon="-0.42578">
        <ele>584.13818359375</ele>
        <time>2015-05-10T11:41:47Z</time>
      </trkpt>
      <trkpt lat="42.97942" lon="-0.42588">
        <ele>587.02197265625</ele>
        <time>2015-05-10T11:42:04Z</time>
      </trkpt>
      <trkpt lat="42.97931" lon="-0.42594">
        <ele>589.90625</ele>
        <time>2015-05-10T11:42:15Z</time>
      </trkpt>
      <trkpt lat="42.97918" lon="-0.42602">
        <ele>592.79028320312</ele>
        <time>2015-05-10T11:42:27Z</time>
      </trkpt>
      <trkpt lat="42.9791" lon="-0.42607">
        <ele>594.23217773438</ele>
        <time>2015-05-10T11:42:35Z</time>
      </trkpt>
      <trkpt lat="42.97904" lon="-0.42611">
        <ele>595.193359375</ele>
        <time>2015-05-10T11:42:41Z</time>
      </trkpt>
      <trkpt lat="42.97892" lon="-0.42622">
        <ele>597.5966796875</ele>
        <time>2015-05-10T11:42:49Z</time>
      </trkpt>
      <trkpt lat="42.97881" lon="-0.42629">
        <ele>599.51928710938</ele>
        <time>2015-05-10T11:42:59Z</time>
      </trkpt>
      <trkpt lat="42.97866" lon="-0.4264">
        <ele>603.36450195312</ele>
        <time>2015-05-10T11:43:12Z</time>
      </trkpt>
      <trkpt lat="42.97865" lon="-0.42641">
        <ele>603.36450195312</ele>
        <time>2015-05-10T11:43:14Z</time>
      </trkpt>
      <trkpt lat="42.97858" lon="-0.42643">
        <ele>605.76806640625</ele>
        <time>2015-05-10T11:43:23Z</time>
      </trkpt>
      <trkpt lat="42.97846" lon="-0.42645">
        <ele>608.65185546875</ele>
        <time>2015-05-10T11:43:34Z</time>
      </trkpt>
      <trkpt lat="42.97831" lon="-0.42655">
        <ele>610.57446289062</ele>
        <time>2015-05-10T11:43:47Z</time>
      </trkpt>
      <trkpt lat="42.9782" lon="-0.42659">
        <ele>613.93896484375</ele>
        <time>2015-05-10T11:43:58Z</time>
      </trkpt>
      <trkpt lat="42.97811" lon="-0.4266">
        <ele>615.86181640625</ele>
        <time>2015-05-10T11:44:08Z</time>
      </trkpt>
      <trkpt lat="42.9781" lon="-0.4266">
        <ele>616.82299804688</ele>
        <time>2015-05-10T11:44:10Z</time>
      </trkpt>
      <trkpt lat="42.97797" lon="-0.42668">
        <ele>619.70703125</ele>
        <time>2015-05-10T11:44:21Z</time>
      </trkpt>
      <trkpt lat="42.97788" lon="-0.42671">
        <ele>620.18774414062</ele>
        <time>2015-05-10T11:44:26Z</time>
      </trkpt>
      <trkpt lat="42.97782" lon="-0.42672">
        <ele>621.14916992188</ele>
        <time>2015-05-10T11:44:30Z</time>
      </trkpt>
      <trkpt lat="42.97767" lon="-0.42685">
        <ele>621.62963867188</ele>
        <time>2015-05-10T11:44:38Z</time>
      </trkpt>
      <trkpt lat="42.97751" lon="-0.42697">
        <ele>621.62963867188</ele>
        <time>2015-05-10T11:44:50Z</time>
      </trkpt>
      <trkpt lat="42.97749" lon="-0.42703">
        <ele>621.14916992188</ele>
        <time>2015-05-10T11:44:54Z</time>
      </trkpt>
      <trkpt lat="42.97751" lon="-0.42707">
        <ele>621.14916992188</ele>
        <time>2015-05-10T11:44:57Z</time>
      </trkpt>
      <trkpt lat="42.97747" lon="-0.42738">
        <ele>618.26489257812</ele>
        <time>2015-05-10T11:45:16Z</time>
      </trkpt>
      <trkpt lat="42.97742" lon="-0.42755">
        <ele>616.34228515625</ele>
        <time>2015-05-10T11:45:26Z</time>
      </trkpt>
      <trkpt lat="42.97738" lon="-0.42777">
        <ele>614.900390625</ele>
        <time>2015-05-10T11:45:39Z</time>
      </trkpt>
      <trkpt lat="42.9773" lon="-0.42798">
        <ele>612.97778320312</ele>
        <time>2015-05-10T11:45:52Z</time>
      </trkpt>
      <trkpt lat="42.97728" lon="-0.42805">
        <ele>612.4970703125</ele>
        <time>2015-05-10T11:45:56Z</time>
      </trkpt>
      <trkpt lat="42.97713" lon="-0.42836">
        <ele>610.57446289062</ele>
        <time>2015-05-10T11:46:17Z</time>
      </trkpt>
      <trkpt lat="42.97697" lon="-0.42859">
        <ele>609.61328125</ele>
        <time>2015-05-10T11:46:36Z</time>
      </trkpt>
      <trkpt lat="42.97678" lon="-0.42878">
        <ele>609.13256835938</ele>
        <time>2015-05-10T11:46:56Z</time>
      </trkpt>
      <trkpt lat="42.97662" lon="-0.42902">
        <ele>609.13256835938</ele>
        <time>2015-05-10T11:47:13Z</time>
      </trkpt>
      <trkpt lat="42.97654" lon="-0.42912">
        <ele>608.65185546875</ele>
        <time>2015-05-10T11:47:24Z</time>
      </trkpt>
      <trkpt lat="42.97646" lon="-0.42923">
        <ele>607.69067382812</ele>
        <time>2015-05-10T11:47:37Z</time>
      </trkpt>
      <trkpt lat="42.97627" lon="-0.42944">
        <ele>607.69067382812</ele>
        <time>2015-05-10T11:47:56Z</time>
      </trkpt>
      <trkpt lat="42.97612" lon="-0.42961">
        <ele>606.24853515625</ele>
        <time>2015-05-10T11:48:10Z</time>
      </trkpt>
      <trkpt lat="42.97593" lon="-0.42983">
        <ele>605.76806640625</ele>
        <time>2015-05-10T11:48:30Z</time>
      </trkpt>
      <trkpt lat="42.97585" lon="-0.42993">
        <ele>604.806640625</ele>
        <time>2015-05-10T11:48:40Z</time>
      </trkpt>
      <trkpt lat="42.97567" lon="-0.43015">
        <ele>604.326171875</ele>
        <time>2015-05-10T11:48:58Z</time>
      </trkpt>
      <trkpt lat="42.97548" lon="-0.4304">
        <ele>603.84521484375</ele>
        <time>2015-05-10T11:49:18Z</time>
      </trkpt>
      <trkpt lat="42.97529" lon="-0.43058">
        <ele>603.36450195312</ele>
        <time>2015-05-10T11:49:36Z</time>
      </trkpt>
      <trkpt lat="42.97514" lon="-0.43077">
        <ele>602.40307617188</ele>
        <time>2015-05-10T11:49:53Z</time>
      </trkpt>
      <trkpt lat="42.97513" lon="-0.4308">
        <ele>602.40307617188</ele>
        <time>2015-05-10T11:49:55Z</time>
      </trkpt>
      <trkpt lat="42.97496" lon="-0.43106">
        <ele>601.44189453125</ele>
        <time>2015-05-10T11:50:15Z</time>
      </trkpt>
      <trkpt lat="42.97493" lon="-0.4311">
        <ele>601.44189453125</ele>
        <time>2015-05-10T11:50:18Z</time>
      </trkpt>
      <trkpt lat="42.97472" lon="-0.43137">
        <ele>600.48071289062</ele>
        <time>2015-05-10T11:50:41Z</time>
      </trkpt>
      <trkpt lat="42.97456" lon="-0.43168">
        <ele>598.07739257812</ele>
        <time>2015-05-10T11:51:03Z</time>
      </trkpt>
      <trkpt lat="42.97442" lon="-0.43188">
        <ele>597.11596679688</ele>
        <time>2015-05-10T11:51:22Z</time>
      </trkpt>
      <trkpt lat="42.9743" lon="-0.43216">
        <ele>598.07739257812</ele>
        <time>2015-05-10T11:52:14Z</time>
      </trkpt>
      <trkpt lat="42.97432" lon="-0.43208">
        <ele>598.55786132812</ele>
        <time>2015-05-10T11:52:26Z</time>
      </trkpt>
      <trkpt lat="42.97434" lon="-0.43204">
        <ele>598.55786132812</ele>
        <time>2015-05-10T11:52:28Z</time>
      </trkpt>
      <trkpt lat="42.9744" lon="-0.432">
        <ele>598.55786132812</ele>
        <time>2015-05-10T11:52:34Z</time>
      </trkpt>
      <trkpt lat="42.97444" lon="-0.43189">
        <ele>599.51928710938</ele>
        <time>2015-05-10T11:52:51Z</time>
      </trkpt>
      <trkpt lat="42.97439" lon="-0.4319">
        <ele>599.51928710938</ele>
        <time>2015-05-10T11:53:10Z</time>
      </trkpt>
      <trkpt lat="42.9744" lon="-0.43187">
        <ele>599.51928710938</ele>
        <time>2015-05-10T11:53:38Z</time>
      </trkpt>
      <trkpt lat="42.9744" lon="-0.43186">
        <ele>599.51928710938</ele>
        <time>2015-05-10T11:55:25Z</time>
      </trkpt>
      <trkpt lat="42.97439" lon="-0.43188">
        <ele>599.03857421875</ele>
        <time>2015-05-10T11:57:20Z</time>
      </trkpt>
      <trkpt lat="42.97433" lon="-0.43196">
        <ele>599.03857421875</ele>
        <time>2015-05-10T11:57:27Z</time>
      </trkpt>
      <trkpt lat="42.9742" lon="-0.43218">
        <ele>597.5966796875</ele>
        <time>2015-05-10T11:57:47Z</time>
      </trkpt>
      <trkpt lat="42.97418" lon="-0.43229">
        <ele>597.5966796875</ele>
        <time>2015-05-10T11:57:57Z</time>
      </trkpt>
      <trkpt lat="42.97415" lon="-0.43238">
        <ele>600</ele>
        <time>2015-05-10T11:58:19Z</time>
      </trkpt>
      <trkpt lat="42.97408" lon="-0.43248">
        <ele>599.51928710938</ele>
        <time>2015-05-10T11:58:40Z</time>
      </trkpt>
      <trkpt lat="42.97403" lon="-0.43259">
        <ele>602.8837890625</ele>
        <time>2015-05-10T11:58:52Z</time>
      </trkpt>
      <trkpt lat="42.97397" lon="-0.43266">
        <ele>603.36450195312</ele>
        <time>2015-05-10T11:59:02Z</time>
      </trkpt>
      <trkpt lat="42.97388" lon="-0.43277">
        <ele>602.40307617188</ele>
        <time>2015-05-10T11:59:18Z</time>
      </trkpt>
      <trkpt lat="42.97387" lon="-0.43279">
        <ele>601.92260742188</ele>
        <time>2015-05-10T11:59:20Z</time>
      </trkpt>
      <trkpt lat="42.97381" lon="-0.43303">
        <ele>602.8837890625</ele>
        <time>2015-05-10T11:59:38Z</time>
      </trkpt>
      <trkpt lat="42.9738" lon="-0.43312">
        <ele>605.76806640625</ele>
        <time>2015-05-10T11:59:47Z</time>
      </trkpt>
      <trkpt lat="42.97382" lon="-0.43329">
        <ele>608.65185546875</ele>
        <time>2015-05-10T12:00:18Z</time>
      </trkpt>
      <trkpt lat="42.97383" lon="-0.43344">
        <ele>612.0166015625</ele>
        <time>2015-05-10T12:00:35Z</time>
      </trkpt>
      <trkpt lat="42.9738" lon="-0.4336">
        <ele>614.41967773438</ele>
        <time>2015-05-10T12:00:50Z</time>
      </trkpt>
      <trkpt lat="42.97373" lon="-0.43378">
        <ele>614.900390625</ele>
        <time>2015-05-10T12:01:04Z</time>
      </trkpt>
      <trkpt lat="42.97367" lon="-0.43401">
        <ele>612.4970703125</ele>
        <time>2015-05-10T12:01:21Z</time>
      </trkpt>
      <trkpt lat="42.97362" lon="-0.43417">
        <ele>612.97778320312</ele>
        <time>2015-05-10T12:01:36Z</time>
      </trkpt>
      <trkpt lat="42.97357" lon="-0.43428">
        <ele>610.57446289062</ele>
        <time>2015-05-10T12:01:48Z</time>
      </trkpt>
      <trkpt lat="42.97349" lon="-0.43433">
        <ele>609.61328125</ele>
        <time>2015-05-10T12:01:59Z</time>
      </trkpt>
      <trkpt lat="42.97343" lon="-0.43438">
        <ele>608.65185546875</ele>
        <time>2015-05-10T12:02:09Z</time>
      </trkpt>
      <trkpt lat="42.97336" lon="-0.43448">
        <ele>609.13256835938</ele>
        <time>2015-05-10T12:02:18Z</time>
      </trkpt>
      <trkpt lat="42.97329" lon="-0.4346">
        <ele>606.72924804688</ele>
        <time>2015-05-10T12:02:29Z</time>
      </trkpt>
      <trkpt lat="42.97322" lon="-0.43471">
        <ele>607.2099609375</ele>
        <time>2015-05-10T12:02:46Z</time>
      </trkpt>
      <trkpt lat="42.97319" lon="-0.43473">
        <ele>608.65185546875</ele>
        <time>2015-05-10T12:02:57Z</time>
      </trkpt>
      <trkpt lat="42.97314" lon="-0.43495">
        <ele>609.61328125</ele>
        <time>2015-05-10T12:03:20Z</time>
      </trkpt>
      <trkpt lat="42.97294" lon="-0.43515">
        <ele>609.13256835938</ele>
        <time>2015-05-10T12:04:40Z</time>
      </trkpt>
      <trkpt lat="42.9729" lon="-0.43521">
        <ele>610.09375</ele>
        <time>2015-05-10T12:04:52Z</time>
      </trkpt>
      <trkpt lat="42.97282" lon="-0.43533">
        <ele>610.09375</ele>
        <time>2015-05-10T12:05:19Z</time>
      </trkpt>
      <trkpt lat="42.97282" lon="-0.43541">
        <ele>613.45849609375</ele>
        <time>2015-05-10T12:05:31Z</time>
      </trkpt>
      <trkpt lat="42.97277" lon="-0.4355">
        <ele>615.38110351562</ele>
        <time>2015-05-10T12:05:40Z</time>
      </trkpt>
      <trkpt lat="42.9727" lon="-0.43555">
        <ele>615.86181640625</ele>
        <time>2015-05-10T12:05:50Z</time>
      </trkpt>
      <trkpt lat="42.97263" lon="-0.43567">
        <ele>616.34228515625</ele>
        <time>2015-05-10T12:06:01Z</time>
      </trkpt>
      <trkpt lat="42.97257" lon="-0.43574">
        <ele>613.93896484375</ele>
        <time>2015-05-10T12:06:12Z</time>
      </trkpt>
      <trkpt lat="42.97251" lon="-0.43581">
        <ele>612.97778320312</ele>
        <time>2015-05-10T12:06:25Z</time>
      </trkpt>
      <trkpt lat="42.97244" lon="-0.43588">
        <ele>612.4970703125</ele>
        <time>2015-05-10T12:06:36Z</time>
      </trkpt>
      <trkpt lat="42.97236" lon="-0.43594">
        <ele>614.41967773438</ele>
        <time>2015-05-10T12:06:52Z</time>
      </trkpt>
      <trkpt lat="42.97224" lon="-0.43611">
        <ele>613.45849609375</ele>
        <time>2015-05-10T12:07:39Z</time>
      </trkpt>
      <trkpt lat="42.97219" lon="-0.43619">
        <ele>614.41967773438</ele>
        <time>2015-05-10T12:07:49Z</time>
      </trkpt>
      <trkpt lat="42.97209" lon="-0.4362">
        <ele>612.97778320312</ele>
        <time>2015-05-10T12:08:01Z</time>
      </trkpt>
      <trkpt lat="42.97197" lon="-0.43626">
        <ele>616.34228515625</ele>
        <time>2015-05-10T12:08:19Z</time>
      </trkpt>
      <trkpt lat="42.97193" lon="-0.43633">
        <ele>617.7841796875</ele>
        <time>2015-05-10T12:08:26Z</time>
      </trkpt>
      <trkpt lat="42.97191" lon="-0.43627">
        <ele>621.14916992188</ele>
        <time>2015-05-10T12:11:22Z</time>
      </trkpt>
      <trkpt lat="42.97189" lon="-0.43642">
        <ele>622.1103515625</ele>
        <time>2015-05-10T12:11:37Z</time>
      </trkpt>
      <trkpt lat="42.97186" lon="-0.4365">
        <ele>624.03295898438</ele>
        <time>2015-05-10T12:11:49Z</time>
      </trkpt>
      <trkpt lat="42.97184" lon="-0.43655">
        <ele>626.9169921875</ele>
        <time>2015-05-10T12:12:05Z</time>
      </trkpt>
      <trkpt lat="42.97192" lon="-0.43656">
        <ele>629.32006835938</ele>
        <time>2015-05-10T12:12:15Z</time>
      </trkpt>
      <trkpt lat="42.97195" lon="-0.43655">
        <ele>632.68481445312</ele>
        <time>2015-05-10T12:12:32Z</time>
      </trkpt>
      <trkpt lat="42.97186" lon="-0.43664">
        <ele>635.56860351562</ele>
        <time>2015-05-10T12:12:55Z</time>
      </trkpt>
      <trkpt lat="42.97178" lon="-0.43672">
        <ele>637.49145507812</ele>
        <time>2015-05-10T12:13:09Z</time>
      </trkpt>
      <trkpt lat="42.97179" lon="-0.43684">
        <ele>640.37548828125</ele>
        <time>2015-05-10T12:13:27Z</time>
      </trkpt>
      <trkpt lat="42.97186" lon="-0.43682">
        <ele>640.37548828125</ele>
        <time>2015-05-10T12:13:43Z</time>
      </trkpt>
      <trkpt lat="42.97194" lon="-0.4368">
        <ele>643.73999023438</ele>
        <time>2015-05-10T12:14:18Z</time>
      </trkpt>
      <trkpt lat="42.97182" lon="-0.43691">
        <ele>646.14331054688</ele>
        <time>2015-05-10T12:14:38Z</time>
      </trkpt>
      <trkpt lat="42.97167" lon="-0.43705">
        <ele>648.06591796875</ele>
        <time>2015-05-10T12:16:15Z</time>
      </trkpt>
      <trkpt lat="42.97167" lon="-0.43709">
        <ele>649.02709960938</ele>
        <time>2015-05-10T12:17:12Z</time>
      </trkpt>
      <trkpt lat="42.97164" lon="-0.43702">
        <ele>648.54638671875</ele>
        <time>2015-05-10T12:18:09Z</time>
      </trkpt>
      <trkpt lat="42.97166" lon="-0.43709">
        <ele>648.54638671875</ele>
        <time>2015-05-10T12:18:55Z</time>
      </trkpt>
      <trkpt lat="42.97177" lon="-0.43707">
        <ele>647.1044921875</ele>
        <time>2015-05-10T12:19:48Z</time>
      </trkpt>
      <trkpt lat="42.97178" lon="-0.43711">
        <ele>648.06591796875</ele>
        <time>2015-05-10T12:20:39Z</time>
      </trkpt>
      <trkpt lat="42.97178" lon="-0.43686">
        <ele>648.54638671875</ele>
        <time>2015-05-10T12:21:19Z</time>
      </trkpt>
      <trkpt lat="42.97173" lon="-0.43708">
        <ele>649.02709960938</ele>
        <time>2015-05-10T12:22:48Z</time>
      </trkpt>
      <trkpt lat="42.97169" lon="-0.43709">
        <ele>649.02709960938</ele>
        <time>2015-05-10T12:22:59Z</time>
      </trkpt>
      <trkpt lat="42.97166" lon="-0.43717">
        <ele>649.5078125</ele>
        <time>2015-05-10T12:23:18Z</time>
      </trkpt>
      <trkpt lat="42.97165" lon="-0.4372">
        <ele>649.02709960938</ele>
        <time>2015-05-10T12:23:39Z</time>
      </trkpt>
      <trkpt lat="42.97153" lon="-0.43723">
        <ele>649.02709960938</ele>
        <time>2015-05-10T12:23:52Z</time>
      </trkpt>
      <trkpt lat="42.97146" lon="-0.43724">
        <ele>646.6240234375</ele>
        <time>2015-05-10T12:23:59Z</time>
      </trkpt>
      <trkpt lat="42.97136" lon="-0.43735">
        <ele>647.58520507812</ele>
        <time>2015-05-10T12:24:14Z</time>
      </trkpt>
      <trkpt lat="42.97127" lon="-0.43743">
        <ele>644.701171875</ele>
        <time>2015-05-10T12:24:29Z</time>
      </trkpt>
      <trkpt lat="42.97127" lon="-0.43741">
        <ele>642.29809570312</ele>
        <time>2015-05-10T12:24:39Z</time>
      </trkpt>
      <trkpt lat="42.97118" lon="-0.43749">
        <ele>639.89477539062</ele>
        <time>2015-05-10T12:24:52Z</time>
      </trkpt>
      <trkpt lat="42.97107" lon="-0.43756">
        <ele>637.0107421875</ele>
        <time>2015-05-10T12:25:06Z</time>
      </trkpt>
      <trkpt lat="42.97099" lon="-0.43765">
        <ele>635.08813476562</ele>
        <time>2015-05-10T12:25:16Z</time>
      </trkpt>
      <trkpt lat="42.97094" lon="-0.43764">
        <ele>632.68481445312</ele>
        <time>2015-05-10T12:25:25Z</time>
      </trkpt>
      <trkpt lat="42.97096" lon="-0.43756">
        <ele>631.24291992188</ele>
        <time>2015-05-10T12:25:35Z</time>
      </trkpt>
      <trkpt lat="42.97095" lon="-0.43752">
        <ele>628.83959960938</ele>
        <time>2015-05-10T12:25:48Z</time>
      </trkpt>
      <trkpt lat="42.97092" lon="-0.43755">
        <ele>628.35888671875</ele>
        <time>2015-05-10T12:25:52Z</time>
      </trkpt>
      <trkpt lat="42.97089" lon="-0.43768">
        <ele>625.47485351562</ele>
        <time>2015-05-10T12:26:03Z</time>
      </trkpt>
      <trkpt lat="42.97081" lon="-0.43775">
        <ele>623.07177734375</ele>
        <time>2015-05-10T12:26:15Z</time>
      </trkpt>
      <trkpt lat="42.97078" lon="-0.43785">
        <ele>623.07177734375</ele>
        <time>2015-05-10T12:26:34Z</time>
      </trkpt>
      <trkpt lat="42.97067" lon="-0.43787">
        <ele>619.70703125</ele>
        <time>2015-05-10T12:27:45Z</time>
      </trkpt>
      <trkpt lat="42.97072" lon="-0.43797">
        <ele>623.07177734375</ele>
        <time>2015-05-10T12:29:51Z</time>
      </trkpt>
      <trkpt lat="42.97076" lon="-0.43801">
        <ele>623.55249023438</ele>
        <time>2015-05-10T12:30:21Z</time>
      </trkpt>
      <trkpt lat="42.97075" lon="-0.43801">
        <ele>625.95556640625</ele>
        <time>2015-05-10T12:30:40Z</time>
      </trkpt>
      <trkpt lat="42.97065" lon="-0.438">
        <ele>629.32006835938</ele>
        <time>2015-05-10T12:31:08Z</time>
      </trkpt>
      <trkpt lat="42.97058" lon="-0.43792">
        <ele>627.39770507812</ele>
        <time>2015-05-10T12:31:34Z</time>
      </trkpt>
      <trkpt lat="42.97057" lon="-0.43784">
        <ele>626.9169921875</ele>
        <time>2015-05-10T12:31:53Z</time>
      </trkpt>
      <trkpt lat="42.97063" lon="-0.43784">
        <ele>626.43627929688</ele>
        <time>2015-05-10T12:32:08Z</time>
      </trkpt>
      <trkpt lat="42.9707" lon="-0.43784">
        <ele>625.47485351562</ele>
        <time>2015-05-10T12:32:27Z</time>
      </trkpt>
      <trkpt lat="42.97077" lon="-0.43775">
        <ele>627.39770507812</ele>
        <time>2015-05-10T12:32:40Z</time>
      </trkpt>
      <trkpt lat="42.97078" lon="-0.43774">
        <ele>627.87817382812</ele>
        <time>2015-05-10T12:32:45Z</time>
      </trkpt>
      <trkpt lat="42.97081" lon="-0.43757">
        <ele>628.83959960938</ele>
        <time>2015-05-10T12:32:58Z</time>
      </trkpt>
      <trkpt lat="42.9708" lon="-0.43779">
        <ele>625.95556640625</ele>
        <time>2015-05-10T12:33:29Z</time>
      </trkpt>
      <trkpt lat="42.97075" lon="-0.43794">
        <ele>624.513671875</ele>
        <time>2015-05-10T12:33:44Z</time>
      </trkpt>
      <trkpt lat="42.97078" lon="-0.43795">
        <ele>624.03295898438</ele>
        <time>2015-05-10T12:34:24Z</time>
      </trkpt>
      <trkpt lat="42.97069" lon="-0.43784">
        <ele>622.59106445312</ele>
        <time>2015-05-10T12:35:46Z</time>
      </trkpt>
    </trkseg>
  </trk>
  <trk>
    <name><![CDATA[ACTIVE LOG 019]]></name>
    <trkseg>
      <trkpt lat="42.97071" lon="-0.43785">
        <ele>622.59106445312</ele>
        <time>2015-05-10T12:36:37Z</time>
      </trkpt>
    </trkseg>
  </trk>
  <trk>
    <name><![CDATA[ACTIVE LOG 020]]></name>
    <trkseg>
      <trkpt lat="42.97071" lon="-0.43784">
        <ele>623.55249023438</ele>
        <time>2015-05-10T12:36:43Z</time>
      </trkpt>
      <trkpt lat="42.97071" lon="-0.43783">
        <ele>623.55249023438</ele>
        <time>2015-05-10T12:37:33Z</time>
      </trkpt>
      <trkpt lat="42.97077" lon="-0.43778">
        <ele>625.47485351562</ele>
        <time>2015-05-10T12:37:47Z</time>
      </trkpt>
      <trkpt lat="42.97083" lon="-0.43753">
        <ele>627.39770507812</ele>
        <time>2015-05-10T12:38:13Z</time>
      </trkpt>
      <trkpt lat="42.97089" lon="-0.43744">
        <ele>630.76220703125</ele>
        <time>2015-05-10T12:38:23Z</time>
      </trkpt>
      <trkpt lat="42.97093" lon="-0.43749">
        <ele>632.2041015625</ele>
        <time>2015-05-10T12:38:36Z</time>
      </trkpt>
      <trkpt lat="42.97091" lon="-0.43762">
        <ele>634.607421875</ele>
        <time>2015-05-10T12:38:49Z</time>
      </trkpt>
      <trkpt lat="42.97097" lon="-0.43768">
        <ele>637.49145507812</ele>
        <time>2015-05-10T12:39:05Z</time>
      </trkpt>
      <trkpt lat="42.97107" lon="-0.43755">
        <ele>639.4140625</ele>
        <time>2015-05-10T12:39:20Z</time>
      </trkpt>
      <trkpt lat="42.97113" lon="-0.4375">
        <ele>642.29809570312</ele>
        <time>2015-05-10T12:39:31Z</time>
      </trkpt>
      <trkpt lat="42.97122" lon="-0.43745">
        <ele>644.220703125</ele>
        <time>2015-05-10T12:39:45Z</time>
      </trkpt>
      <trkpt lat="42.9713" lon="-0.43751">
        <ele>646.6240234375</ele>
        <time>2015-05-10T12:40:01Z</time>
      </trkpt>
      <trkpt lat="42.97131" lon="-0.4374">
        <ele>648.54638671875</ele>
        <time>2015-05-10T12:40:10Z</time>
      </trkpt>
      <trkpt lat="42.97131" lon="-0.43734">
        <ele>647.58520507812</ele>
        <time>2015-05-10T12:40:21Z</time>
      </trkpt>
      <trkpt lat="42.97131" lon="-0.43732">
        <ele>648.54638671875</ele>
        <time>2015-05-10T12:40:24Z</time>
      </trkpt>
      <trkpt lat="42.97135" lon="-0.43722">
        <ele>648.06591796875</ele>
        <time>2015-05-10T12:40:35Z</time>
      </trkpt>
      <trkpt lat="42.97141" lon="-0.43714">
        <ele>648.54638671875</ele>
        <time>2015-05-10T12:40:46Z</time>
      </trkpt>
      <trkpt lat="42.97153" lon="-0.43712">
        <ele>649.02709960938</ele>
        <time>2015-05-10T12:40:56Z</time>
      </trkpt>
      <trkpt lat="42.97168" lon="-0.43705">
        <ele>648.54638671875</ele>
        <time>2015-05-10T12:41:11Z</time>
      </trkpt>
      <trkpt lat="42.97177" lon="-0.43697">
        <ele>645.66259765625</ele>
        <time>2015-05-10T12:41:27Z</time>
      </trkpt>
      <trkpt lat="42.97186" lon="-0.43689">
        <ele>644.701171875</ele>
        <time>2015-05-10T12:41:38Z</time>
      </trkpt>
      <trkpt lat="42.97189" lon="-0.43684">
        <ele>643.25927734375</ele>
        <time>2015-05-10T12:41:47Z</time>
      </trkpt>
      <trkpt lat="42.97185" lon="-0.43689">
        <ele>641.33666992188</ele>
        <time>2015-05-10T12:42:05Z</time>
      </trkpt>
      <trkpt lat="42.97178" lon="-0.4369">
        <ele>638.45288085938</ele>
        <time>2015-05-10T12:42:19Z</time>
      </trkpt>
      <trkpt lat="42.97181" lon="-0.43676">
        <ele>635.08813476562</ele>
        <time>2015-05-10T12:42:30Z</time>
      </trkpt>
      <trkpt lat="42.97186" lon="-0.43667">
        <ele>634.12670898438</ele>
        <time>2015-05-10T12:42:40Z</time>
      </trkpt>
      <trkpt lat="42.97197" lon="-0.43662">
        <ele>630.76220703125</ele>
        <time>2015-05-10T12:43:08Z</time>
      </trkpt>
      <trkpt lat="42.97196" lon="-0.43663">
        <ele>630.28149414062</ele>
        <time>2015-05-10T12:43:10Z</time>
      </trkpt>
      <trkpt lat="42.9719" lon="-0.43659">
        <ele>628.35888671875</ele>
        <time>2015-05-10T12:43:21Z</time>
      </trkpt>
      <trkpt lat="42.97188" lon="-0.43658">
        <ele>627.87817382812</ele>
        <time>2015-05-10T12:43:24Z</time>
      </trkpt>
      <trkpt lat="42.97188" lon="-0.43651">
        <ele>624.513671875</ele>
        <time>2015-05-10T12:43:36Z</time>
      </trkpt>
      <trkpt lat="42.97188" lon="-0.43651">
        <ele>624.03295898438</ele>
        <time>2015-05-10T12:43:37Z</time>
      </trkpt>
      <trkpt lat="42.97188" lon="-0.43641">
        <ele>620.66845703125</ele>
        <time>2015-05-10T12:43:49Z</time>
      </trkpt>
      <trkpt lat="42.97189" lon="-0.43641">
        <ele>620.66845703125</ele>
        <time>2015-05-10T12:43:50Z</time>
      </trkpt>
      <trkpt lat="42.97199" lon="-0.43633">
        <ele>618.26489257812</ele>
        <time>2015-05-10T12:44:17Z</time>
      </trkpt>
      <trkpt lat="42.97199" lon="-0.43622">
        <ele>616.82299804688</ele>
        <time>2015-05-10T12:44:28Z</time>
      </trkpt>
      <trkpt lat="42.97207" lon="-0.43617">
        <ele>617.3037109375</ele>
        <time>2015-05-10T12:44:38Z</time>
      </trkpt>
      <trkpt lat="42.97217" lon="-0.43607">
        <ele>617.3037109375</ele>
        <time>2015-05-10T12:44:52Z</time>
      </trkpt>
      <trkpt lat="42.97225" lon="-0.43595">
        <ele>618.74560546875</ele>
        <time>2015-05-10T12:45:09Z</time>
      </trkpt>
      <trkpt lat="42.9724" lon="-0.43585">
        <ele>617.7841796875</ele>
        <time>2015-05-10T12:45:29Z</time>
      </trkpt>
      <trkpt lat="42.97248" lon="-0.43579">
        <ele>618.74560546875</ele>
        <time>2015-05-10T12:45:38Z</time>
      </trkpt>
      <trkpt lat="42.97256" lon="-0.43574">
        <ele>620.18774414062</ele>
        <time>2015-05-10T12:45:48Z</time>
      </trkpt>
      <trkpt lat="42.97266" lon="-0.43559">
        <ele>621.14916992188</ele>
        <time>2015-05-10T12:46:10Z</time>
      </trkpt>
      <trkpt lat="42.97276" lon="-0.43558">
        <ele>619.22631835938</ele>
        <time>2015-05-10T12:46:22Z</time>
      </trkpt>
      <trkpt lat="42.97284" lon="-0.43553">
        <ele>616.82299804688</ele>
        <time>2015-05-10T12:46:36Z</time>
      </trkpt>
      <trkpt lat="42.97286" lon="-0.43556">
        <ele>614.900390625</ele>
        <time>2015-05-10T12:46:39Z</time>
      </trkpt>
      <trkpt lat="42.97282" lon="-0.43536">
        <ele>614.900390625</ele>
        <time>2015-05-10T12:46:54Z</time>
      </trkpt>
      <trkpt lat="42.97293" lon="-0.43526">
        <ele>616.34228515625</ele>
        <time>2015-05-10T12:47:12Z</time>
      </trkpt>
      <trkpt lat="42.97295" lon="-0.43516">
        <ele>614.41967773438</ele>
        <time>2015-05-10T12:47:23Z</time>
      </trkpt>
      <trkpt lat="42.97307" lon="-0.43514">
        <ele>616.34228515625</ele>
        <time>2015-05-10T12:47:38Z</time>
      </trkpt>
      <trkpt lat="42.97311" lon="-0.43506">
        <ele>615.86181640625</ele>
        <time>2015-05-10T12:47:49Z</time>
      </trkpt>
      <trkpt lat="42.97314" lon="-0.43492">
        <ele>615.38110351562</ele>
        <time>2015-05-10T12:48:01Z</time>
      </trkpt>
      <trkpt lat="42.9732" lon="-0.43489">
        <ele>614.41967773438</ele>
        <time>2015-05-10T12:48:17Z</time>
      </trkpt>
      <trkpt lat="42.97316" lon="-0.43485">
        <ele>614.41967773438</ele>
        <time>2015-05-10T12:48:30Z</time>
      </trkpt>
      <trkpt lat="42.9731" lon="-0.43455">
        <ele>614.900390625</ele>
        <time>2015-05-10T12:48:37Z</time>
      </trkpt>
      <trkpt lat="42.97292" lon="-0.43441">
        <ele>614.41967773438</ele>
        <time>2015-05-10T12:48:58Z</time>
      </trkpt>
    </trkseg>
  </trk>
  <trk>
    <name><![CDATA[ACTIVE LOG 021]]></name>
    <trkseg>
      <trkpt lat="42.95336" lon="-0.43964">
        <ele>660.56298828125</ele>
        <time>2015-05-10T13:22:53Z</time>
      </trkpt>
      <trkpt lat="42.95554" lon="-0.43873">
        <ele>660.56298828125</ele>
        <time>2015-05-10T13:23:08Z</time>
      </trkpt>
      <trkpt lat="42.95537" lon="-0.43956">
        <ele>661.04370117188</ele>
        <time>2015-05-10T13:24:24Z</time>
      </trkpt>
      <trkpt lat="42.95542" lon="-0.43955">
        <ele>661.04370117188</ele>
        <time>2015-05-10T13:24:49Z</time>
      </trkpt>
      <trkpt lat="42.95545" lon="-0.43963">
        <ele>661.04370117188</ele>
        <time>2015-05-10T13:24:57Z</time>
      </trkpt>
      <trkpt lat="42.95545" lon="-0.43965">
        <ele>661.04370117188</ele>
        <time>2015-05-10T13:25:14Z</time>
      </trkpt>
      <trkpt lat="42.95539" lon="-0.43964">
        <ele>657.67919921875</ele>
        <time>2015-05-10T13:25:36Z</time>
      </trkpt>
      <trkpt lat="42.95551" lon="-0.43963">
        <ele>654.31469726562</ele>
        <time>2015-05-10T13:25:58Z</time>
      </trkpt>
      <trkpt lat="42.95542" lon="-0.43963">
        <ele>650.94970703125</ele>
        <time>2015-05-10T13:26:23Z</time>
      </trkpt>
      <trkpt lat="42.95539" lon="-0.43956">
        <ele>648.06591796875</ele>
        <time>2015-05-10T13:26:50Z</time>
      </trkpt>
      <trkpt lat="42.95548" lon="-0.43937">
        <ele>646.14331054688</ele>
        <time>2015-05-10T13:27:06Z</time>
      </trkpt>
      <trkpt lat="42.95549" lon="-0.43926">
        <ele>644.701171875</ele>
        <time>2015-05-10T13:27:17Z</time>
      </trkpt>
      <trkpt lat="42.95558" lon="-0.43912">
        <ele>643.73999023438</ele>
        <time>2015-05-10T13:27:32Z</time>
      </trkpt>
      <trkpt lat="42.95558" lon="-0.43906">
        <ele>641.8173828125</ele>
        <time>2015-05-10T13:27:44Z</time>
      </trkpt>
      <trkpt lat="42.95557" lon="-0.43905">
        <ele>641.33666992188</ele>
        <time>2015-05-10T13:27:53Z</time>
      </trkpt>
      <trkpt lat="42.95545" lon="-0.43909">
        <ele>640.85595703125</ele>
        <time>2015-05-10T13:28:07Z</time>
      </trkpt>
      <trkpt lat="42.95541" lon="-0.4391">
        <ele>640.37548828125</ele>
        <time>2015-05-10T13:28:20Z</time>
      </trkpt>
      <trkpt lat="42.9554" lon="-0.43912">
        <ele>640.37548828125</ele>
        <time>2015-05-10T13:28:29Z</time>
      </trkpt>
      <trkpt lat="42.95549" lon="-0.43905">
        <ele>640.85595703125</ele>
        <time>2015-05-10T13:28:39Z</time>
      </trkpt>
      <trkpt lat="42.95553" lon="-0.43902">
        <ele>640.85595703125</ele>
        <time>2015-05-10T13:28:45Z</time>
      </trkpt>
      <trkpt lat="42.95559" lon="-0.43905">
        <ele>642.77880859375</ele>
        <time>2015-05-10T13:29:00Z</time>
      </trkpt>
      <trkpt lat="42.95562" lon="-0.43903">
        <ele>643.25927734375</ele>
        <time>2015-05-10T13:29:04Z</time>
      </trkpt>
      <trkpt lat="42.9557" lon="-0.43901">
        <ele>644.220703125</ele>
        <time>2015-05-10T13:29:15Z</time>
      </trkpt>
      <trkpt lat="42.95573" lon="-0.43902">
        <ele>644.701171875</ele>
        <time>2015-05-10T13:29:23Z</time>
      </trkpt>
      <trkpt lat="42.95574" lon="-0.43902">
        <ele>645.66259765625</ele>
        <time>2015-05-10T13:29:38Z</time>
      </trkpt>
      <trkpt lat="42.95576" lon="-0.43901">
        <ele>645.18188476562</ele>
        <time>2015-05-10T13:29:50Z</time>
      </trkpt>
      <trkpt lat="42.95579" lon="-0.43899">
        <ele>645.66259765625</ele>
        <time>2015-05-10T13:29:56Z</time>
      </trkpt>
      <trkpt lat="42.9558" lon="-0.43896">
        <ele>645.18188476562</ele>
        <time>2015-05-10T13:30:01Z</time>
      </trkpt>
      <trkpt lat="42.95583" lon="-0.43886">
        <ele>643.73999023438</ele>
        <time>2015-05-10T13:30:20Z</time>
      </trkpt>
      <trkpt lat="42.95561" lon="-0.43888">
        <ele>645.18188476562</ele>
        <time>2015-05-10T13:31:38Z</time>
      </trkpt>
      <trkpt lat="42.95554" lon="-0.43887">
        <ele>645.66259765625</ele>
        <time>2015-05-10T13:32:15Z</time>
      </trkpt>
      <trkpt lat="42.95566" lon="-0.43874">
        <ele>644.701171875</ele>
        <time>2015-05-10T13:32:32Z</time>
      </trkpt>
      <trkpt lat="42.95567" lon="-0.43873">
        <ele>644.220703125</ele>
        <time>2015-05-10T13:32:33Z</time>
      </trkpt>
      <trkpt lat="42.9557" lon="-0.43868">
        <ele>644.220703125</ele>
        <time>2015-05-10T13:32:38Z</time>
      </trkpt>
      <trkpt lat="42.95584" lon="-0.43859">
        <ele>643.25927734375</ele>
        <time>2015-05-10T13:32:55Z</time>
      </trkpt>
      <trkpt lat="42.95602" lon="-0.4386">
        <ele>641.33666992188</ele>
        <time>2015-05-10T13:33:11Z</time>
      </trkpt>
      <trkpt lat="42.95615" lon="-0.43866">
        <ele>641.33666992188</ele>
        <time>2015-05-10T13:33:25Z</time>
      </trkpt>
      <trkpt lat="42.95628" lon="-0.43871">
        <ele>640.37548828125</ele>
        <time>2015-05-10T13:33:40Z</time>
      </trkpt>
      <trkpt lat="42.9563" lon="-0.43872">
        <ele>640.37548828125</ele>
        <time>2015-05-10T13:33:53Z</time>
      </trkpt>
      <trkpt lat="42.95633" lon="-0.43879">
        <ele>639.89477539062</ele>
        <time>2015-05-10T13:34:03Z</time>
      </trkpt>
      <trkpt lat="42.95638" lon="-0.43882">
        <ele>638.93359375</ele>
        <time>2015-05-10T13:34:18Z</time>
      </trkpt>
      <trkpt lat="42.95648" lon="-0.43888">
        <ele>636.04956054688</ele>
        <time>2015-05-10T13:34:30Z</time>
      </trkpt>
      <trkpt lat="42.95653" lon="-0.43893">
        <ele>633.64599609375</ele>
        <time>2015-05-10T13:34:39Z</time>
      </trkpt>
      <trkpt lat="42.95661" lon="-0.43901">
        <ele>632.68481445312</ele>
        <time>2015-05-10T13:34:49Z</time>
      </trkpt>
      <trkpt lat="42.95667" lon="-0.43908">
        <ele>629.80078125</ele>
        <time>2015-05-10T13:35:00Z</time>
      </trkpt>
      <trkpt lat="42.95673" lon="-0.43919">
        <ele>626.43627929688</ele>
        <time>2015-05-10T13:35:12Z</time>
      </trkpt>
      <trkpt lat="42.95675" lon="-0.4392">
        <ele>624.99438476562</ele>
        <time>2015-05-10T13:35:15Z</time>
      </trkpt>
      <trkpt lat="42.95683" lon="-0.43929">
        <ele>623.07177734375</ele>
        <time>2015-05-10T13:35:28Z</time>
      </trkpt>
      <trkpt lat="42.95677" lon="-0.43929">
        <ele>621.14916992188</ele>
        <time>2015-05-10T13:35:47Z</time>
      </trkpt>
      <trkpt lat="42.95677" lon="-0.43928">
        <ele>621.14916992188</ele>
        <time>2015-05-10T13:36:05Z</time>
      </trkpt>
      <trkpt lat="42.95671" lon="-0.43927">
        <ele>620.66845703125</ele>
        <time>2015-05-10T13:37:04Z</time>
      </trkpt>
      <trkpt lat="42.95669" lon="-0.43934">
        <ele>619.22631835938</ele>
        <time>2015-05-10T13:37:17Z</time>
      </trkpt>
      <trkpt lat="42.95678" lon="-0.43947">
        <ele>618.26489257812</ele>
        <time>2015-05-10T13:37:32Z</time>
      </trkpt>
      <trkpt lat="42.95686" lon="-0.43951">
        <ele>617.7841796875</ele>
        <time>2015-05-10T13:37:38Z</time>
      </trkpt>
      <trkpt lat="42.95688" lon="-0.43954">
        <ele>618.74560546875</ele>
        <time>2015-05-10T13:37:41Z</time>
      </trkpt>
      <trkpt lat="42.9569" lon="-0.43955">
        <ele>618.26489257812</ele>
        <time>2015-05-10T13:37:43Z</time>
      </trkpt>
      <trkpt lat="42.95699" lon="-0.43978">
        <ele>618.26489257812</ele>
        <time>2015-05-10T13:38:03Z</time>
      </trkpt>
      <trkpt lat="42.95724" lon="-0.44002">
        <ele>617.7841796875</ele>
        <time>2015-05-10T13:38:27Z</time>
      </trkpt>
      <trkpt lat="42.95743" lon="-0.44024">
        <ele>618.26489257812</ele>
        <time>2015-05-10T13:38:45Z</time>
      </trkpt>
      <trkpt lat="42.9576" lon="-0.44043">
        <ele>618.74560546875</ele>
        <time>2015-05-10T13:39:02Z</time>
      </trkpt>
      <trkpt lat="42.95758" lon="-0.44057">
        <ele>618.26489257812</ele>
        <time>2015-05-10T13:39:19Z</time>
      </trkpt>
      <trkpt lat="42.95763" lon="-0.44057">
        <ele>618.26489257812</ele>
        <time>2015-05-10T13:39:24Z</time>
      </trkpt>
      <trkpt lat="42.95775" lon="-0.44056">
        <ele>618.26489257812</ele>
        <time>2015-05-10T13:39:31Z</time>
      </trkpt>
      <trkpt lat="42.95788" lon="-0.44052">
        <ele>617.3037109375</ele>
        <time>2015-05-10T13:39:43Z</time>
      </trkpt>
      <trkpt lat="42.95808" lon="-0.44052">
        <ele>616.82299804688</ele>
        <time>2015-05-10T13:39:54Z</time>
      </trkpt>
      <trkpt lat="42.95826" lon="-0.44049">
        <ele>616.82299804688</ele>
        <time>2015-05-10T13:40:05Z</time>
      </trkpt>
      <trkpt lat="42.95855" lon="-0.44039">
        <ele>616.34228515625</ele>
        <time>2015-05-10T13:40:21Z</time>
      </trkpt>
      <trkpt lat="42.95877" lon="-0.44037">
        <ele>616.34228515625</ele>
        <time>2015-05-10T13:40:37Z</time>
      </trkpt>
      <trkpt lat="42.9589" lon="-0.44031">
        <ele>616.34228515625</ele>
        <time>2015-05-10T13:40:49Z</time>
      </trkpt>
      <trkpt lat="42.95894" lon="-0.44031">
        <ele>616.34228515625</ele>
        <time>2015-05-10T13:40:53Z</time>
      </trkpt>
      <trkpt lat="42.95905" lon="-0.44037">
        <ele>615.86181640625</ele>
        <time>2015-05-10T13:41:07Z</time>
      </trkpt>
      <trkpt lat="42.95915" lon="-0.44039">
        <ele>615.38110351562</ele>
        <time>2015-05-10T13:41:16Z</time>
      </trkpt>
      <trkpt lat="42.95927" lon="-0.44034">
        <ele>615.86181640625</ele>
        <time>2015-05-10T13:41:26Z</time>
      </trkpt>
      <trkpt lat="42.95936" lon="-0.44031">
        <ele>615.38110351562</ele>
        <time>2015-05-10T13:41:37Z</time>
      </trkpt>
      <trkpt lat="42.95948" lon="-0.44024">
        <ele>615.86181640625</ele>
        <time>2015-05-10T13:41:48Z</time>
      </trkpt>
      <trkpt lat="42.95961" lon="-0.44012">
        <ele>616.34228515625</ele>
        <time>2015-05-10T13:42:03Z</time>
      </trkpt>
      <trkpt lat="42.95976" lon="-0.44009">
        <ele>616.34228515625</ele>
        <time>2015-05-10T13:42:15Z</time>
      </trkpt>
      <trkpt lat="42.95982" lon="-0.4401">
        <ele>616.82299804688</ele>
        <time>2015-05-10T13:42:25Z</time>
      </trkpt>
      <trkpt lat="42.95994" lon="-0.44006">
        <ele>615.38110351562</ele>
        <time>2015-05-10T13:42:37Z</time>
      </trkpt>
      <trkpt lat="42.96007" lon="-0.44009">
        <ele>614.900390625</ele>
        <time>2015-05-10T13:42:48Z</time>
      </trkpt>
      <trkpt lat="42.96009" lon="-0.44012">
        <ele>613.93896484375</ele>
        <time>2015-05-10T13:42:52Z</time>
      </trkpt>
      <trkpt lat="42.96024" lon="-0.44016">
        <ele>612.4970703125</ele>
        <time>2015-05-10T13:43:06Z</time>
      </trkpt>
      <trkpt lat="42.96033" lon="-0.4402">
        <ele>612.4970703125</ele>
        <time>2015-05-10T13:43:15Z</time>
      </trkpt>
      <trkpt lat="42.96046" lon="-0.44023">
        <ele>612.0166015625</ele>
        <time>2015-05-10T13:43:25Z</time>
      </trkpt>
      <trkpt lat="42.96049" lon="-0.44022">
        <ele>612.0166015625</ele>
        <time>2015-05-10T13:43:29Z</time>
      </trkpt>
      <trkpt lat="42.9606" lon="-0.44026">
        <ele>612.4970703125</ele>
        <time>2015-05-10T13:43:40Z</time>
      </trkpt>
      <trkpt lat="42.96068" lon="-0.44031">
        <ele>612.97778320312</ele>
        <time>2015-05-10T13:43:49Z</time>
      </trkpt>
      <trkpt lat="42.96079" lon="-0.44032">
        <ele>613.45849609375</ele>
        <time>2015-05-10T13:43:59Z</time>
      </trkpt>
      <trkpt lat="42.96096" lon="-0.44036">
        <ele>613.45849609375</ele>
        <time>2015-05-10T13:44:12Z</time>
      </trkpt>
      <trkpt lat="42.96108" lon="-0.44042">
        <ele>612.4970703125</ele>
        <time>2015-05-10T13:44:23Z</time>
      </trkpt>
      <trkpt lat="42.9611" lon="-0.44042">
        <ele>613.45849609375</ele>
        <time>2015-05-10T13:44:25Z</time>
      </trkpt>
      <trkpt lat="42.96116" lon="-0.44049">
        <ele>613.45849609375</ele>
        <time>2015-05-10T13:44:33Z</time>
      </trkpt>
      <trkpt lat="42.96132" lon="-0.44051">
        <ele>614.900390625</ele>
        <time>2015-05-10T13:44:47Z</time>
      </trkpt>
      <trkpt lat="42.96143" lon="-0.44051">
        <ele>615.38110351562</ele>
        <time>2015-05-10T13:44:56Z</time>
      </trkpt>
      <trkpt lat="42.96153" lon="-0.44056">
        <ele>615.86181640625</ele>
        <time>2015-05-10T13:45:05Z</time>
      </trkpt>
      <trkpt lat="42.96166" lon="-0.44061">
        <ele>615.86181640625</ele>
        <time>2015-05-10T13:45:17Z</time>
      </trkpt>
      <trkpt lat="42.96176" lon="-0.44064">
        <ele>614.900390625</ele>
        <time>2015-05-10T13:45:27Z</time>
      </trkpt>
      <trkpt lat="42.96184" lon="-0.44062">
        <ele>614.900390625</ele>
        <time>2015-05-10T13:45:43Z</time>
      </trkpt>
      <trkpt lat="42.96185" lon="-0.4406">
        <ele>614.900390625</ele>
        <time>2015-05-10T13:46:30Z</time>
      </trkpt>
      <trkpt lat="42.9619" lon="-0.4406">
        <ele>615.38110351562</ele>
        <time>2015-05-10T13:46:45Z</time>
      </trkpt>
      <trkpt lat="42.96203" lon="-0.44052">
        <ele>615.38110351562</ele>
        <time>2015-05-10T13:47:01Z</time>
      </trkpt>
      <trkpt lat="42.9621" lon="-0.44049">
        <ele>615.86181640625</ele>
        <time>2015-05-10T13:47:15Z</time>
      </trkpt>
      <trkpt lat="42.96214" lon="-0.44044">
        <ele>616.34228515625</ele>
        <time>2015-05-10T13:47:27Z</time>
      </trkpt>
      <trkpt lat="42.96221" lon="-0.44044">
        <ele>615.86181640625</ele>
        <time>2015-05-10T13:47:37Z</time>
      </trkpt>
      <trkpt lat="42.96224" lon="-0.44046">
        <ele>615.86181640625</ele>
        <time>2015-05-10T13:48:05Z</time>
      </trkpt>
      <trkpt lat="42.96225" lon="-0.44047">
        <ele>619.22631835938</ele>
        <time>2015-05-10T13:48:18Z</time>
      </trkpt>
      <trkpt lat="42.96238" lon="-0.44046">
        <ele>622.59106445312</ele>
        <time>2015-05-10T13:48:38Z</time>
      </trkpt>
      <trkpt lat="42.96237" lon="-0.44048">
        <ele>625.47485351562</ele>
        <time>2015-05-10T13:48:47Z</time>
      </trkpt>
      <trkpt lat="42.96239" lon="-0.4405">
        <ele>628.35888671875</ele>
        <time>2015-05-10T13:49:08Z</time>
      </trkpt>
      <trkpt lat="42.96235" lon="-0.44049">
        <ele>628.35888671875</ele>
        <time>2015-05-10T13:49:11Z</time>
      </trkpt>
      <trkpt lat="42.96234" lon="-0.44051">
        <ele>630.28149414062</ele>
        <time>2015-05-10T13:49:25Z</time>
      </trkpt>
      <trkpt lat="42.96238" lon="-0.44046">
        <ele>633.64599609375</ele>
        <time>2015-05-10T13:49:48Z</time>
      </trkpt>
      <trkpt lat="42.9625" lon="-0.44044">
        <ele>633.64599609375</ele>
        <time>2015-05-10T13:49:53Z</time>
      </trkpt>
      <trkpt lat="42.9628" lon="-0.44041">
        <ele>635.08813476562</ele>
        <time>2015-05-10T13:50:09Z</time>
      </trkpt>
      <trkpt lat="42.96297" lon="-0.44036">
        <ele>636.04956054688</ele>
        <time>2015-05-10T13:50:28Z</time>
      </trkpt>
      <trkpt lat="42.96303" lon="-0.44035">
        <ele>636.5302734375</ele>
        <time>2015-05-10T13:50:44Z</time>
      </trkpt>
      <trkpt lat="42.96297" lon="-0.44037">
        <ele>637.49145507812</ele>
        <time>2015-05-10T13:51:04Z</time>
      </trkpt>
      <trkpt lat="42.96305" lon="-0.44035">
        <ele>638.45288085938</ele>
        <time>2015-05-10T13:51:28Z</time>
      </trkpt>
      <trkpt lat="42.96308" lon="-0.44034">
        <ele>639.89477539062</ele>
        <time>2015-05-10T13:52:00Z</time>
      </trkpt>
      <trkpt lat="42.9629" lon="-0.44041">
        <ele>640.85595703125</ele>
        <time>2015-05-10T13:52:15Z</time>
      </trkpt>
      <trkpt lat="42.96286" lon="-0.44041">
        <ele>644.220703125</ele>
        <time>2015-05-10T13:52:47Z</time>
      </trkpt>
      <trkpt lat="42.96263" lon="-0.44046">
        <ele>647.1044921875</ele>
        <time>2015-05-10T13:53:25Z</time>
      </trkpt>
      <trkpt lat="42.96262" lon="-0.44045">
        <ele>648.54638671875</ele>
        <time>2015-05-10T13:53:43Z</time>
      </trkpt>
      <trkpt lat="42.96282" lon="-0.44034">
        <ele>649.98852539062</ele>
        <time>2015-05-10T13:54:08Z</time>
      </trkpt>
      <trkpt lat="42.96283" lon="-0.44031">
        <ele>650.94970703125</ele>
        <time>2015-05-10T13:54:32Z</time>
      </trkpt>
      <trkpt lat="42.963" lon="-0.44031">
        <ele>651.9111328125</ele>
        <time>2015-05-10T13:54:54Z</time>
      </trkpt>
      <trkpt lat="42.96313" lon="-0.44029">
        <ele>651.9111328125</ele>
        <time>2015-05-10T13:55:00Z</time>
      </trkpt>
      <trkpt lat="42.96331" lon="-0.4402">
        <ele>651.9111328125</ele>
        <time>2015-05-10T13:55:10Z</time>
      </trkpt>
      <trkpt lat="42.96351" lon="-0.44019">
        <ele>652.87255859375</ele>
        <time>2015-05-10T13:55:22Z</time>
      </trkpt>
      <trkpt lat="42.9637" lon="-0.44017">
        <ele>651.43041992188</ele>
        <time>2015-05-10T13:55:41Z</time>
      </trkpt>
      <trkpt lat="42.9637" lon="-0.44019">
        <ele>653.833984375</ele>
        <time>2015-05-10T13:55:59Z</time>
      </trkpt>
      <trkpt lat="42.96364" lon="-0.44025">
        <ele>652.87255859375</ele>
        <time>2015-05-10T13:56:03Z</time>
      </trkpt>
      <trkpt lat="42.96329" lon="-0.44029">
        <ele>653.35327148438</ele>
        <time>2015-05-10T13:56:20Z</time>
      </trkpt>
      <trkpt lat="42.96314" lon="-0.44031">
        <ele>652.87255859375</ele>
        <time>2015-05-10T13:56:36Z</time>
      </trkpt>
      <trkpt lat="42.96317" lon="-0.44024">
        <ele>653.833984375</ele>
        <time>2015-05-10T13:57:00Z</time>
      </trkpt>
      <trkpt lat="42.96317" lon="-0.44022">
        <ele>654.31469726562</ele>
        <time>2015-05-10T13:57:17Z</time>
      </trkpt>
      <trkpt lat="42.96318" lon="-0.44021">
        <ele>654.79516601562</ele>
        <time>2015-05-10T13:57:22Z</time>
      </trkpt>
      <trkpt lat="42.96329" lon="-0.44022">
        <ele>653.833984375</ele>
        <time>2015-05-10T13:57:40Z</time>
      </trkpt>
      <trkpt lat="42.96337" lon="-0.44017">
        <ele>653.35327148438</ele>
        <time>2015-05-10T13:57:54Z</time>
      </trkpt>
      <trkpt lat="42.96337" lon="-0.44013">
        <ele>654.79516601562</ele>
        <time>2015-05-10T13:58:01Z</time>
      </trkpt>
      <trkpt lat="42.96334" lon="-0.44012">
        <ele>655.75659179688</ele>
        <time>2015-05-10T13:58:13Z</time>
      </trkpt>
      <trkpt lat="42.96337" lon="-0.44009">
        <ele>658.15991210938</ele>
        <time>2015-05-10T13:58:32Z</time>
      </trkpt>
      <trkpt lat="42.96345" lon="-0.44009">
        <ele>659.12109375</ele>
        <time>2015-05-10T13:58:43Z</time>
      </trkpt>
      <trkpt lat="42.96354" lon="-0.44008">
        <ele>661.04370117188</ele>
        <time>2015-05-10T13:58:57Z</time>
      </trkpt>
      <trkpt lat="42.96359" lon="-0.44005">
        <ele>661.5244140625</ele>
        <time>2015-05-10T13:59:07Z</time>
      </trkpt>
      <trkpt lat="42.96363" lon="-0.44">
        <ele>663.44702148438</ele>
        <time>2015-05-10T13:59:15Z</time>
      </trkpt>
      <trkpt lat="42.96371" lon="-0.43998">
        <ele>664.408203125</ele>
        <time>2015-05-10T13:59:25Z</time>
      </trkpt>
      <trkpt lat="42.96379" lon="-0.43997">
        <ele>665.36962890625</ele>
        <time>2015-05-10T13:59:34Z</time>
      </trkpt>
      <trkpt lat="42.96387" lon="-0.43998">
        <ele>663.92749023438</ele>
        <time>2015-05-10T13:59:45Z</time>
      </trkpt>
      <trkpt lat="42.96398" lon="-0.44001">
        <ele>662.48559570312</ele>
        <time>2015-05-10T13:59:56Z</time>
      </trkpt>
      <trkpt lat="42.964" lon="-0.44009">
        <ele>660.56298828125</ele>
        <time>2015-05-10T14:00:07Z</time>
      </trkpt>
      <trkpt lat="42.96402" lon="-0.44011">
        <ele>658.64038085938</ele>
        <time>2015-05-10T14:00:11Z</time>
      </trkpt>
      <trkpt lat="42.96413" lon="-0.44009">
        <ele>657.67919921875</ele>
        <time>2015-05-10T14:00:21Z</time>
      </trkpt>
      <trkpt lat="42.9642" lon="-0.44009">
        <ele>657.19848632812</ele>
        <time>2015-05-10T14:00:29Z</time>
      </trkpt>
      <trkpt lat="42.96428" lon="-0.44005">
        <ele>658.64038085938</ele>
        <time>2015-05-10T14:00:35Z</time>
      </trkpt>
      <trkpt lat="42.96438" lon="-0.44007">
        <ele>656.23706054688</ele>
        <time>2015-05-10T14:00:48Z</time>
      </trkpt>
      <trkpt lat="42.96441" lon="-0.44006">
        <ele>656.23706054688</ele>
        <time>2015-05-10T14:00:52Z</time>
      </trkpt>
      <trkpt lat="42.96465" lon="-0.43993">
        <ele>655.75659179688</ele>
        <time>2015-05-10T14:01:08Z</time>
      </trkpt>
      <trkpt lat="42.96475" lon="-0.43991">
        <ele>655.75659179688</ele>
        <time>2015-05-10T14:01:16Z</time>
      </trkpt>
      <trkpt lat="42.96485" lon="-0.4399">
        <ele>655.27587890625</ele>
        <time>2015-05-10T14:01:27Z</time>
      </trkpt>
      <trkpt lat="42.96506" lon="-0.43983">
        <ele>657.67919921875</ele>
        <time>2015-05-10T14:01:44Z</time>
      </trkpt>
      <trkpt lat="42.96518" lon="-0.43977">
        <ele>656.7177734375</ele>
        <time>2015-05-10T14:01:55Z</time>
      </trkpt>
      <trkpt lat="42.96527" lon="-0.43971">
        <ele>653.833984375</ele>
        <time>2015-05-10T14:03:28Z</time>
      </trkpt>
      <trkpt lat="42.96535" lon="-0.43972">
        <ele>654.79516601562</ele>
        <time>2015-05-10T14:03:40Z</time>
      </trkpt>
      <trkpt lat="42.96542" lon="-0.43966">
        <ele>656.23706054688</ele>
        <time>2015-05-10T14:03:49Z</time>
      </trkpt>
      <trkpt lat="42.96549" lon="-0.43965">
        <ele>656.7177734375</ele>
        <time>2015-05-10T14:03:59Z</time>
      </trkpt>
      <trkpt lat="42.96558" lon="-0.43965">
        <ele>656.7177734375</ele>
        <time>2015-05-10T14:04:08Z</time>
      </trkpt>
      <trkpt lat="42.96571" lon="-0.43959">
        <ele>656.7177734375</ele>
        <time>2015-05-10T14:04:19Z</time>
      </trkpt>
      <trkpt lat="42.96585" lon="-0.43952">
        <ele>657.67919921875</ele>
        <time>2015-05-10T14:04:30Z</time>
      </trkpt>
      <trkpt lat="42.96596" lon="-0.4394">
        <ele>659.12109375</ele>
        <time>2015-05-10T14:04:40Z</time>
      </trkpt>
      <trkpt lat="42.96609" lon="-0.43939">
        <ele>657.19848632812</ele>
        <time>2015-05-10T14:04:52Z</time>
      </trkpt>
      <trkpt lat="42.96607" lon="-0.4394">
        <ele>654.31469726562</ele>
        <time>2015-05-10T14:05:02Z</time>
      </trkpt>
      <trkpt lat="42.96618" lon="-0.43936">
        <ele>651.9111328125</ele>
        <time>2015-05-10T14:05:14Z</time>
      </trkpt>
      <trkpt lat="42.96625" lon="-0.43928">
        <ele>653.35327148438</ele>
        <time>2015-05-10T14:05:22Z</time>
      </trkpt>
      <trkpt lat="42.96636" lon="-0.43923">
        <ele>651.43041992188</ele>
        <time>2015-05-10T14:05:33Z</time>
      </trkpt>
      <trkpt lat="42.96645" lon="-0.43909">
        <ele>654.31469726562</ele>
        <time>2015-05-10T14:05:44Z</time>
      </trkpt>
      <trkpt lat="42.96657" lon="-0.439">
        <ele>655.75659179688</ele>
        <time>2015-05-10T14:05:54Z</time>
      </trkpt>
      <trkpt lat="42.96668" lon="-0.43888">
        <ele>656.7177734375</ele>
        <time>2015-05-10T14:06:08Z</time>
      </trkpt>
      <trkpt lat="42.96674" lon="-0.43882">
        <ele>657.19848632812</ele>
        <time>2015-05-10T14:06:16Z</time>
      </trkpt>
      <trkpt lat="42.96678" lon="-0.43877">
        <ele>657.67919921875</ele>
        <time>2015-05-10T14:06:20Z</time>
      </trkpt>
      <trkpt lat="42.96683" lon="-0.43873">
        <ele>658.64038085938</ele>
        <time>2015-05-10T14:06:25Z</time>
      </trkpt>
      <trkpt lat="42.96699" lon="-0.43857">
        <ele>660.08227539062</ele>
        <time>2015-05-10T14:06:39Z</time>
      </trkpt>
      <trkpt lat="42.96701" lon="-0.43837">
        <ele>662.00512695312</ele>
        <time>2015-05-10T14:06:50Z</time>
      </trkpt>
      <trkpt lat="42.96711" lon="-0.43828">
        <ele>664.408203125</ele>
        <time>2015-05-10T14:07:01Z</time>
      </trkpt>
      <trkpt lat="42.96718" lon="-0.43824">
        <ele>664.88891601562</ele>
        <time>2015-05-10T14:07:05Z</time>
      </trkpt>
      <trkpt lat="42.96727" lon="-0.43811">
        <ele>666.8115234375</ele>
        <time>2015-05-10T14:07:17Z</time>
      </trkpt>
      <trkpt lat="42.96728" lon="-0.43808">
        <ele>666.33081054688</ele>
        <time>2015-05-10T14:07:19Z</time>
      </trkpt>
      <trkpt lat="42.96726" lon="-0.43804">
        <ele>665.36962890625</ele>
        <time>2015-05-10T14:07:29Z</time>
      </trkpt>
      <trkpt lat="42.96734" lon="-0.43796">
        <ele>665.36962890625</ele>
        <time>2015-05-10T14:07:40Z</time>
      </trkpt>
      <trkpt lat="42.96744" lon="-0.43783">
        <ele>666.33081054688</ele>
        <time>2015-05-10T14:07:52Z</time>
      </trkpt>
      <trkpt lat="42.96754" lon="-0.43784">
        <ele>666.33081054688</ele>
        <time>2015-05-10T14:08:12Z</time>
      </trkpt>
      <trkpt lat="42.96769" lon="-0.43775">
        <ele>667.77270507812</ele>
        <time>2015-05-10T14:08:27Z</time>
      </trkpt>
      <trkpt lat="42.96783" lon="-0.43772">
        <ele>668.25366210938</ele>
        <time>2015-05-10T14:08:39Z</time>
      </trkpt>
      <trkpt lat="42.96789" lon="-0.43772">
        <ele>668.25366210938</ele>
        <time>2015-05-10T14:08:45Z</time>
      </trkpt>
      <trkpt lat="42.96801" lon="-0.43774">
        <ele>668.734375</ele>
        <time>2015-05-10T14:09:01Z</time>
      </trkpt>
      <trkpt lat="42.968" lon="-0.43771">
        <ele>667.77270507812</ele>
        <time>2015-05-10T14:10:04Z</time>
      </trkpt>
      <trkpt lat="42.96803" lon="-0.43771">
        <ele>667.29223632812</ele>
        <time>2015-05-10T14:10:18Z</time>
      </trkpt>
      <trkpt lat="42.96805" lon="-0.43772">
        <ele>667.29223632812</ele>
        <time>2015-05-10T14:10:34Z</time>
      </trkpt>
      <trkpt lat="42.96812" lon="-0.43769">
        <ele>666.33081054688</ele>
        <time>2015-05-10T14:11:15Z</time>
      </trkpt>
      <trkpt lat="42.9682" lon="-0.4377">
        <ele>668.25366210938</ele>
        <time>2015-05-10T14:11:54Z</time>
      </trkpt>
      <trkpt lat="42.96828" lon="-0.43769">
        <ele>668.734375</ele>
        <time>2015-05-10T14:12:06Z</time>
      </trkpt>
      <trkpt lat="42.96835" lon="-0.43768">
        <ele>668.25366210938</ele>
        <time>2015-05-10T14:12:23Z</time>
      </trkpt>
      <trkpt lat="42.96843" lon="-0.43768">
        <ele>666.33081054688</ele>
        <time>2015-05-10T14:12:39Z</time>
      </trkpt>
      <trkpt lat="42.96849" lon="-0.43769">
        <ele>662.96630859375</ele>
        <time>2015-05-10T14:12:49Z</time>
      </trkpt>
      <trkpt lat="42.96866" lon="-0.43765">
        <ele>663.44702148438</ele>
        <time>2015-05-10T14:13:14Z</time>
      </trkpt>
      <trkpt lat="42.96875" lon="-0.43762">
        <ele>664.408203125</ele>
        <time>2015-05-10T14:13:23Z</time>
      </trkpt>
      <trkpt lat="42.96885" lon="-0.43759">
        <ele>665.36962890625</ele>
        <time>2015-05-10T14:13:34Z</time>
      </trkpt>
      <trkpt lat="42.96896" lon="-0.43753">
        <ele>666.8115234375</ele>
        <time>2015-05-10T14:13:48Z</time>
      </trkpt>
      <trkpt lat="42.96904" lon="-0.43747">
        <ele>667.29223632812</ele>
        <time>2015-05-10T14:14:12Z</time>
      </trkpt>
      <trkpt lat="42.96914" lon="-0.43742">
        <ele>665.36962890625</ele>
        <time>2015-05-10T14:14:30Z</time>
      </trkpt>
      <trkpt lat="42.96923" lon="-0.43731">
        <ele>665.85034179688</ele>
        <time>2015-05-10T14:14:51Z</time>
      </trkpt>
      <trkpt lat="42.96929" lon="-0.43725">
        <ele>665.36962890625</ele>
        <time>2015-05-10T14:15:05Z</time>
      </trkpt>
      <trkpt lat="42.96939" lon="-0.43717">
        <ele>664.408203125</ele>
        <time>2015-05-10T14:15:16Z</time>
      </trkpt>
      <trkpt lat="42.96955" lon="-0.43707">
        <ele>665.85034179688</ele>
        <time>2015-05-10T14:15:32Z</time>
      </trkpt>
      <trkpt lat="42.96965" lon="-0.43698">
        <ele>665.36962890625</ele>
        <time>2015-05-10T14:15:42Z</time>
      </trkpt>
      <trkpt lat="42.96979" lon="-0.43691">
        <ele>664.408203125</ele>
        <time>2015-05-10T14:15:51Z</time>
      </trkpt>
      <trkpt lat="42.96992" lon="-0.43685">
        <ele>662.96630859375</ele>
        <time>2015-05-10T14:16:03Z</time>
      </trkpt>
      <trkpt lat="42.96993" lon="-0.43679">
        <ele>661.04370117188</ele>
        <time>2015-05-10T14:16:15Z</time>
      </trkpt>
      <trkpt lat="42.96998" lon="-0.43679">
        <ele>661.5244140625</ele>
        <time>2015-05-10T14:16:41Z</time>
      </trkpt>
      <trkpt lat="42.9701" lon="-0.43686">
        <ele>662.00512695312</ele>
        <time>2015-05-10T14:17:22Z</time>
      </trkpt>
      <trkpt lat="42.97014" lon="-0.43683">
        <ele>661.5244140625</ele>
        <time>2015-05-10T14:17:37Z</time>
      </trkpt>
      <trkpt lat="42.9701" lon="-0.43676">
        <ele>661.5244140625</ele>
        <time>2015-05-10T14:18:04Z</time>
      </trkpt>
      <trkpt lat="42.97002" lon="-0.43668">
        <ele>661.04370117188</ele>
        <time>2015-05-10T14:18:24Z</time>
      </trkpt>
      <trkpt lat="42.9699" lon="-0.43662">
        <ele>662.00512695312</ele>
        <time>2015-05-10T14:18:41Z</time>
      </trkpt>
      <trkpt lat="42.97005" lon="-0.43679">
        <ele>662.00512695312</ele>
        <time>2015-05-10T14:19:18Z</time>
      </trkpt>
      <trkpt lat="42.97006" lon="-0.4368">
        <ele>662.00512695312</ele>
        <time>2015-05-10T14:19:42Z</time>
      </trkpt>
      <trkpt lat="42.97011" lon="-0.43682">
        <ele>661.5244140625</ele>
        <time>2015-05-10T14:19:57Z</time>
      </trkpt>
      <trkpt lat="42.97006" lon="-0.43683">
        <ele>662.00512695312</ele>
        <time>2015-05-10T14:20:11Z</time>
      </trkpt>
      <trkpt lat="42.97013" lon="-0.43688">
        <ele>662.00512695312</ele>
        <time>2015-05-10T14:20:31Z</time>
      </trkpt>
      <trkpt lat="42.96996" lon="-0.43681">
        <ele>661.04370117188</ele>
        <time>2015-05-10T14:21:27Z</time>
      </trkpt>
      <trkpt lat="42.96996" lon="-0.43692">
        <ele>658.15991210938</ele>
        <time>2015-05-10T14:21:37Z</time>
      </trkpt>
      <trkpt lat="42.96994" lon="-0.43695">
        <ele>657.67919921875</ele>
        <time>2015-05-10T14:21:40Z</time>
      </trkpt>
      <trkpt lat="42.96981" lon="-0.43708">
        <ele>656.7177734375</ele>
        <time>2015-05-10T14:21:52Z</time>
      </trkpt>
      <trkpt lat="42.9698" lon="-0.4371">
        <ele>655.75659179688</ele>
        <time>2015-05-10T14:21:55Z</time>
      </trkpt>
      <trkpt lat="42.96975" lon="-0.43721">
        <ele>654.79516601562</ele>
        <time>2015-05-10T14:22:05Z</time>
      </trkpt>
      <trkpt lat="42.96975" lon="-0.43723">
        <ele>654.31469726562</ele>
        <time>2015-05-10T14:22:07Z</time>
      </trkpt>
      <trkpt lat="42.96965" lon="-0.43726">
        <ele>650.94970703125</ele>
        <time>2015-05-10T14:22:21Z</time>
      </trkpt>
      <trkpt lat="42.9697" lon="-0.43719">
        <ele>650.46923828125</ele>
        <time>2015-05-10T14:22:32Z</time>
      </trkpt>
      <trkpt lat="42.96974" lon="-0.43721">
        <ele>647.1044921875</ele>
        <time>2015-05-10T14:22:49Z</time>
      </trkpt>
      <trkpt lat="42.96975" lon="-0.43724">
        <ele>647.1044921875</ele>
        <time>2015-05-10T14:22:53Z</time>
      </trkpt>
      <trkpt lat="42.96974" lon="-0.43727">
        <ele>646.14331054688</ele>
        <time>2015-05-10T14:23:03Z</time>
      </trkpt>
      <trkpt lat="42.96975" lon="-0.43735">
        <ele>642.77880859375</ele>
        <time>2015-05-10T14:23:11Z</time>
      </trkpt>
      <trkpt lat="42.96975" lon="-0.43736">
        <ele>642.77880859375</ele>
        <time>2015-05-10T14:23:12Z</time>
      </trkpt>
      <trkpt lat="42.96967" lon="-0.43736">
        <ele>642.29809570312</ele>
        <time>2015-05-10T14:23:40Z</time>
      </trkpt>
      <trkpt lat="42.96962" lon="-0.43746">
        <ele>640.37548828125</ele>
        <time>2015-05-10T14:24:13Z</time>
      </trkpt>
      <trkpt lat="42.96963" lon="-0.43756">
        <ele>639.4140625</ele>
        <time>2015-05-10T14:24:21Z</time>
      </trkpt>
      <trkpt lat="42.9696" lon="-0.43768">
        <ele>637.97216796875</ele>
        <time>2015-05-10T14:24:31Z</time>
      </trkpt>
      <trkpt lat="42.96959" lon="-0.43768">
        <ele>634.12670898438</ele>
        <time>2015-05-10T14:24:42Z</time>
      </trkpt>
      <trkpt lat="42.96965" lon="-0.43765">
        <ele>632.68481445312</ele>
        <time>2015-05-10T14:25:11Z</time>
      </trkpt>
      <trkpt lat="42.96957" lon="-0.43766">
        <ele>634.12670898438</ele>
        <time>2015-05-10T14:26:29Z</time>
      </trkpt>
      <trkpt lat="42.96967" lon="-0.43768">
        <ele>631.24291992188</ele>
        <time>2015-05-10T14:27:05Z</time>
      </trkpt>
      <trkpt lat="42.96966" lon="-0.43765">
        <ele>630.28149414062</ele>
        <time>2015-05-10T14:27:31Z</time>
      </trkpt>
      <trkpt lat="42.96967" lon="-0.43767">
        <ele>627.39770507812</ele>
        <time>2015-05-10T14:31:10Z</time>
      </trkpt>
      <trkpt lat="42.96966" lon="-0.4377">
        <ele>626.43627929688</ele>
        <time>2015-05-10T14:32:08Z</time>
      </trkpt>
      <trkpt lat="42.96966" lon="-0.43771">
        <ele>626.43627929688</ele>
        <time>2015-05-10T14:32:09Z</time>
      </trkpt>
      <trkpt lat="42.96966" lon="-0.43785">
        <ele>625.95556640625</ele>
        <time>2015-05-10T14:32:21Z</time>
      </trkpt>
      <trkpt lat="42.96958" lon="-0.43796">
        <ele>622.1103515625</ele>
        <time>2015-05-10T14:32:37Z</time>
      </trkpt>
      <trkpt lat="42.96957" lon="-0.43797">
        <ele>622.1103515625</ele>
        <time>2015-05-10T14:32:38Z</time>
      </trkpt>
      <trkpt lat="42.96955" lon="-0.438">
        <ele>622.1103515625</ele>
        <time>2015-05-10T14:32:41Z</time>
      </trkpt>
      <trkpt lat="42.96952" lon="-0.43802">
        <ele>620.66845703125</ele>
        <time>2015-05-10T14:32:44Z</time>
      </trkpt>
      <trkpt lat="42.96944" lon="-0.43814">
        <ele>618.74560546875</ele>
        <time>2015-05-10T14:32:57Z</time>
      </trkpt>
      <trkpt lat="42.96944" lon="-0.43815">
        <ele>618.26489257812</ele>
        <time>2015-05-10T14:32:58Z</time>
      </trkpt>
      <trkpt lat="42.96941" lon="-0.43833">
        <ele>616.82299804688</ele>
        <time>2015-05-10T14:33:10Z</time>
      </trkpt>
      <trkpt lat="42.96942" lon="-0.43845">
        <ele>614.41967773438</ele>
        <time>2015-05-10T14:33:20Z</time>
      </trkpt>
      <trkpt lat="42.96949" lon="-0.43865">
        <ele>613.93896484375</ele>
        <time>2015-05-10T14:33:39Z</time>
      </trkpt>
      <trkpt lat="42.96949" lon="-0.43871">
        <ele>613.45849609375</ele>
        <time>2015-05-10T14:33:54Z</time>
      </trkpt>
      <trkpt lat="42.96956" lon="-0.43873">
        <ele>614.41967773438</ele>
        <time>2015-05-10T14:34:06Z</time>
      </trkpt>
      <trkpt lat="42.96959" lon="-0.43874">
        <ele>616.82299804688</ele>
        <time>2015-05-10T14:34:25Z</time>
      </trkpt>
      <trkpt lat="42.96963" lon="-0.43883">
        <ele>618.74560546875</ele>
        <time>2015-05-10T14:34:31Z</time>
      </trkpt>
      <trkpt lat="42.96962" lon="-0.43883">
        <ele>619.70703125</ele>
        <time>2015-05-10T14:34:51Z</time>
      </trkpt>
      <trkpt lat="42.96954" lon="-0.43878">
        <ele>620.18774414062</ele>
        <time>2015-05-10T14:35:22Z</time>
      </trkpt>
      <trkpt lat="42.9696" lon="-0.43875">
        <ele>621.14916992188</ele>
        <time>2015-05-10T14:36:00Z</time>
      </trkpt>
      <trkpt lat="42.96963" lon="-0.43878">
        <ele>622.1103515625</ele>
        <time>2015-05-10T14:36:23Z</time>
      </trkpt>
      <trkpt lat="42.96977" lon="-0.43872">
        <ele>622.59106445312</ele>
        <time>2015-05-10T14:36:40Z</time>
      </trkpt>
      <trkpt lat="42.96988" lon="-0.43865">
        <ele>623.55249023438</ele>
        <time>2015-05-10T14:36:52Z</time>
      </trkpt>
      <trkpt lat="42.96994" lon="-0.43853">
        <ele>623.55249023438</ele>
        <time>2015-05-10T14:37:03Z</time>
      </trkpt>
      <trkpt lat="42.97014" lon="-0.43834">
        <ele>623.07177734375</ele>
        <time>2015-05-10T14:37:22Z</time>
      </trkpt>
      <trkpt lat="42.9703" lon="-0.43824">
        <ele>624.99438476562</ele>
        <time>2015-05-10T14:37:39Z</time>
      </trkpt>
      <trkpt lat="42.97042" lon="-0.43816">
        <ele>627.39770507812</ele>
        <time>2015-05-10T14:37:52Z</time>
      </trkpt>
      <trkpt lat="42.97047" lon="-0.43816">
        <ele>626.43627929688</ele>
        <time>2015-05-10T14:38:10Z</time>
      </trkpt>
      <trkpt lat="42.97046" lon="-0.43816">
        <ele>626.43627929688</ele>
        <time>2015-05-10T14:38:27Z</time>
      </trkpt>
      <trkpt lat="42.97042" lon="-0.43812">
        <ele>625.47485351562</ele>
        <time>2015-05-10T14:39:22Z</time>
      </trkpt>
      <trkpt lat="42.97043" lon="-0.43814">
        <ele>622.1103515625</ele>
        <time>2015-05-10T14:42:21Z</time>
      </trkpt>
      <trkpt lat="42.97047" lon="-0.4382">
        <ele>621.62963867188</ele>
        <time>2015-05-10T14:44:13Z</time>
      </trkpt>
      <trkpt lat="42.97045" lon="-0.43819">
        <ele>622.1103515625</ele>
        <time>2015-05-10T14:44:38Z</time>
      </trkpt>
      <trkpt lat="42.97041" lon="-0.43824">
        <ele>622.1103515625</ele>
        <time>2015-05-10T14:44:51Z</time>
      </trkpt>
      <trkpt lat="42.97033" lon="-0.43831">
        <ele>621.14916992188</ele>
        <time>2015-05-10T14:45:03Z</time>
      </trkpt>
      <trkpt lat="42.97029" lon="-0.43832">
        <ele>619.70703125</ele>
        <time>2015-05-10T14:45:07Z</time>
      </trkpt>
      <trkpt lat="42.97023" lon="-0.43834">
        <ele>618.74560546875</ele>
        <time>2015-05-10T14:45:14Z</time>
      </trkpt>
      <trkpt lat="42.97005" lon="-0.43849">
        <ele>619.22631835938</ele>
        <time>2015-05-10T14:45:34Z</time>
      </trkpt>
      <trkpt lat="42.96999" lon="-0.43856">
        <ele>618.74560546875</ele>
        <time>2015-05-10T14:45:43Z</time>
      </trkpt>
      <trkpt lat="42.96989" lon="-0.43869">
        <ele>618.74560546875</ele>
        <time>2015-05-10T14:45:58Z</time>
      </trkpt>
      <trkpt lat="42.96988" lon="-0.4387">
        <ele>617.7841796875</ele>
        <time>2015-05-10T14:45:59Z</time>
      </trkpt>
      <trkpt lat="42.9698" lon="-0.43881">
        <ele>617.7841796875</ele>
        <time>2015-05-10T14:46:08Z</time>
      </trkpt>
      <trkpt lat="42.96975" lon="-0.43883">
        <ele>617.3037109375</ele>
        <time>2015-05-10T14:46:14Z</time>
      </trkpt>
      <trkpt lat="42.96968" lon="-0.43882">
        <ele>615.86181640625</ele>
        <time>2015-05-10T14:46:25Z</time>
      </trkpt>
      <trkpt lat="42.96968" lon="-0.43881">
        <ele>614.41967773438</ele>
        <time>2015-05-10T14:46:27Z</time>
      </trkpt>
      <trkpt lat="42.96967" lon="-0.43878">
        <ele>612.0166015625</ele>
        <time>2015-05-10T14:46:39Z</time>
      </trkpt>
      <trkpt lat="42.96963" lon="-0.43882">
        <ele>612.0166015625</ele>
        <time>2015-05-10T14:46:45Z</time>
      </trkpt>
      <trkpt lat="42.96952" lon="-0.43875">
        <ele>611.53588867188</ele>
        <time>2015-05-10T14:46:56Z</time>
      </trkpt>
      <trkpt lat="42.96942" lon="-0.43848">
        <ele>611.05517578125</ele>
        <time>2015-05-10T14:47:16Z</time>
      </trkpt>
      <trkpt lat="42.96935" lon="-0.43831">
        <ele>613.93896484375</ele>
        <time>2015-05-10T14:47:29Z</time>
      </trkpt>
      <trkpt lat="42.96937" lon="-0.43819">
        <ele>615.38110351562</ele>
        <time>2015-05-10T14:47:38Z</time>
      </trkpt>
      <trkpt lat="42.96942" lon="-0.43809">
        <ele>617.3037109375</ele>
        <time>2015-05-10T14:47:47Z</time>
      </trkpt>
      <trkpt lat="42.96958" lon="-0.43794">
        <ele>620.66845703125</ele>
        <time>2015-05-10T14:48:06Z</time>
      </trkpt>
      <trkpt lat="42.96966" lon="-0.43782">
        <ele>622.59106445312</ele>
        <time>2015-05-10T14:48:18Z</time>
      </trkpt>
      <trkpt lat="42.96965" lon="-0.43776">
        <ele>623.07177734375</ele>
        <time>2015-05-10T14:48:22Z</time>
      </trkpt>
      <trkpt lat="42.96958" lon="-0.4377">
        <ele>625.95556640625</ele>
        <time>2015-05-10T14:48:36Z</time>
      </trkpt>
      <trkpt lat="42.96952" lon="-0.43771">
        <ele>628.83959960938</ele>
        <time>2015-05-10T14:48:50Z</time>
      </trkpt>
      <trkpt lat="42.96952" lon="-0.43769">
        <ele>630.28149414062</ele>
        <time>2015-05-10T14:48:53Z</time>
      </trkpt>
      <trkpt lat="42.96958" lon="-0.43752">
        <ele>633.16528320312</ele>
        <time>2015-05-10T14:49:07Z</time>
      </trkpt>
      <trkpt lat="42.96961" lon="-0.43744">
        <ele>634.12670898438</ele>
        <time>2015-05-10T14:49:14Z</time>
      </trkpt>
      <trkpt lat="42.96967" lon="-0.43733">
        <ele>635.56860351562</ele>
        <time>2015-05-10T14:49:24Z</time>
      </trkpt>
      <trkpt lat="42.96972" lon="-0.43722">
        <ele>637.0107421875</ele>
        <time>2015-05-10T14:49:36Z</time>
      </trkpt>
      <trkpt lat="42.96967" lon="-0.43725">
        <ele>640.37548828125</ele>
        <time>2015-05-10T14:49:46Z</time>
      </trkpt>
      <trkpt lat="42.96966" lon="-0.43725">
        <ele>639.89477539062</ele>
        <time>2015-05-10T14:49:50Z</time>
      </trkpt>
      <trkpt lat="42.9696" lon="-0.43729">
        <ele>640.37548828125</ele>
        <time>2015-05-10T14:49:57Z</time>
      </trkpt>
      <trkpt lat="42.96957" lon="-0.43726">
        <ele>641.8173828125</ele>
        <time>2015-05-10T14:50:03Z</time>
      </trkpt>
      <trkpt lat="42.9696" lon="-0.4372">
        <ele>643.25927734375</ele>
        <time>2015-05-10T14:50:08Z</time>
      </trkpt>
      <trkpt lat="42.96961" lon="-0.43718">
        <ele>643.25927734375</ele>
        <time>2015-05-10T14:50:10Z</time>
      </trkpt>
      <trkpt lat="42.96968" lon="-0.43704">
        <ele>646.6240234375</ele>
        <time>2015-05-10T14:50:22Z</time>
      </trkpt>
      <trkpt lat="42.96974" lon="-0.43697">
        <ele>648.06591796875</ele>
        <time>2015-05-10T14:50:31Z</time>
      </trkpt>
      <trkpt lat="42.96981" lon="-0.43686">
        <ele>649.02709960938</ele>
        <time>2015-05-10T14:50:40Z</time>
      </trkpt>
      <trkpt lat="42.9698" lon="-0.43682">
        <ele>651.43041992188</ele>
        <time>2015-05-10T14:50:52Z</time>
      </trkpt>
      <trkpt lat="42.96974" lon="-0.4369">
        <ele>653.833984375</ele>
        <time>2015-05-10T14:51:03Z</time>
      </trkpt>
      <trkpt lat="42.96972" lon="-0.43699">
        <ele>654.79516601562</ele>
        <time>2015-05-10T14:51:12Z</time>
      </trkpt>
      <trkpt lat="42.96966" lon="-0.43702">
        <ele>656.23706054688</ele>
        <time>2015-05-10T14:51:17Z</time>
      </trkpt>
      <trkpt lat="42.96962" lon="-0.43703">
        <ele>655.27587890625</ele>
        <time>2015-05-10T14:51:20Z</time>
      </trkpt>
      <trkpt lat="42.96956" lon="-0.43713">
        <ele>654.31469726562</ele>
        <time>2015-05-10T14:51:30Z</time>
      </trkpt>
      <trkpt lat="42.96956" lon="-0.43715">
        <ele>653.35327148438</ele>
        <time>2015-05-10T14:51:31Z</time>
      </trkpt>
      <trkpt lat="42.96953" lon="-0.4372">
        <ele>652.87255859375</ele>
        <time>2015-05-10T14:51:37Z</time>
      </trkpt>
      <trkpt lat="42.96935" lon="-0.43732">
        <ele>655.75659179688</ele>
        <time>2015-05-10T14:51:51Z</time>
      </trkpt>
      <trkpt lat="42.96921" lon="-0.43746">
        <ele>655.27587890625</ele>
        <time>2015-05-10T14:52:06Z</time>
      </trkpt>
      <trkpt lat="42.96909" lon="-0.43756">
        <ele>654.79516601562</ele>
        <time>2015-05-10T14:52:18Z</time>
      </trkpt>
      <trkpt lat="42.96897" lon="-0.43759">
        <ele>654.31469726562</ele>
        <time>2015-05-10T14:52:29Z</time>
      </trkpt>
      <trkpt lat="42.96888" lon="-0.43762">
        <ele>652.87255859375</ele>
        <time>2015-05-10T14:52:35Z</time>
      </trkpt>
      <trkpt lat="42.96882" lon="-0.43763">
        <ele>652.39184570312</ele>
        <time>2015-05-10T14:52:39Z</time>
      </trkpt>
      <trkpt lat="42.96877" lon="-0.43764">
        <ele>651.43041992188</ele>
        <time>2015-05-10T14:52:43Z</time>
      </trkpt>
      <trkpt lat="42.96868" lon="-0.4377">
        <ele>649.5078125</ele>
        <time>2015-05-10T14:52:56Z</time>
      </trkpt>
      <trkpt lat="42.96852" lon="-0.43775">
        <ele>650.46923828125</ele>
        <time>2015-05-10T14:53:09Z</time>
      </trkpt>
      <trkpt lat="42.96844" lon="-0.43777">
        <ele>653.833984375</ele>
        <time>2015-05-10T14:53:15Z</time>
      </trkpt>
      <trkpt lat="42.96834" lon="-0.43777">
        <ele>654.79516601562</ele>
        <time>2015-05-10T14:53:26Z</time>
      </trkpt>
      <trkpt lat="42.96818" lon="-0.43779">
        <ele>653.833984375</ele>
        <time>2015-05-10T14:53:42Z</time>
      </trkpt>
      <trkpt lat="42.96808" lon="-0.43779">
        <ele>653.35327148438</ele>
        <time>2015-05-10T14:53:52Z</time>
      </trkpt>
      <trkpt lat="42.96796" lon="-0.43778">
        <ele>653.35327148438</ele>
        <time>2015-05-10T14:54:05Z</time>
      </trkpt>
      <trkpt lat="42.9678" lon="-0.43779">
        <ele>652.39184570312</ele>
        <time>2015-05-10T14:54:20Z</time>
      </trkpt>
      <trkpt lat="42.96768" lon="-0.43781">
        <ele>651.43041992188</ele>
        <time>2015-05-10T14:54:32Z</time>
      </trkpt>
      <trkpt lat="42.96766" lon="-0.43784">
        <ele>651.9111328125</ele>
        <time>2015-05-10T14:54:36Z</time>
      </trkpt>
      <trkpt lat="42.96763" lon="-0.4379">
        <ele>650.94970703125</ele>
        <time>2015-05-10T14:54:42Z</time>
      </trkpt>
      <trkpt lat="42.96749" lon="-0.43787">
        <ele>649.98852539062</ele>
        <time>2015-05-10T14:54:53Z</time>
      </trkpt>
      <trkpt lat="42.96742" lon="-0.43793">
        <ele>649.5078125</ele>
        <time>2015-05-10T14:55:03Z</time>
      </trkpt>
      <trkpt lat="42.96727" lon="-0.43797">
        <ele>649.5078125</ele>
        <time>2015-05-10T14:55:18Z</time>
      </trkpt>
      <trkpt lat="42.96718" lon="-0.43794">
        <ele>651.43041992188</ele>
        <time>2015-05-10T14:55:26Z</time>
      </trkpt>
      <trkpt lat="42.96721" lon="-0.43795">
        <ele>650.46923828125</ele>
        <time>2015-05-10T14:55:33Z</time>
      </trkpt>
      <trkpt lat="42.96723" lon="-0.43816">
        <ele>647.58520507812</ele>
        <time>2015-05-10T14:55:48Z</time>
      </trkpt>
      <trkpt lat="42.9672" lon="-0.43824">
        <ele>647.1044921875</ele>
        <time>2015-05-10T14:55:52Z</time>
      </trkpt>
      <trkpt lat="42.96708" lon="-0.43829">
        <ele>645.66259765625</ele>
        <time>2015-05-10T14:56:03Z</time>
      </trkpt>
      <trkpt lat="42.96702" lon="-0.43846">
        <ele>645.66259765625</ele>
        <time>2015-05-10T14:56:09Z</time>
      </trkpt>
      <trkpt lat="42.96696" lon="-0.43861">
        <ele>645.66259765625</ele>
        <time>2015-05-10T14:56:19Z</time>
      </trkpt>
      <trkpt lat="42.96685" lon="-0.4387">
        <ele>642.29809570312</ele>
        <time>2015-05-10T14:56:29Z</time>
      </trkpt>
      <trkpt lat="42.96683" lon="-0.43874">
        <ele>641.33666992188</ele>
        <time>2015-05-10T14:56:34Z</time>
      </trkpt>
      <trkpt lat="42.96679" lon="-0.43879">
        <ele>641.33666992188</ele>
        <time>2015-05-10T14:56:38Z</time>
      </trkpt>
      <trkpt lat="42.96667" lon="-0.43894">
        <ele>639.89477539062</ele>
        <time>2015-05-10T14:56:51Z</time>
      </trkpt>
      <trkpt lat="42.96656" lon="-0.43904">
        <ele>638.45288085938</ele>
        <time>2015-05-10T14:57:02Z</time>
      </trkpt>
      <trkpt lat="42.96652" lon="-0.43913">
        <ele>636.04956054688</ele>
        <time>2015-05-10T14:57:11Z</time>
      </trkpt>
      <trkpt lat="42.96653" lon="-0.43915">
        <ele>635.56860351562</ele>
        <time>2015-05-10T14:57:12Z</time>
      </trkpt>
      <trkpt lat="42.96653" lon="-0.43918">
        <ele>634.607421875</ele>
        <time>2015-05-10T14:57:14Z</time>
      </trkpt>
      <trkpt lat="42.96651" lon="-0.43925">
        <ele>635.08813476562</ele>
        <time>2015-05-10T14:57:21Z</time>
      </trkpt>
      <trkpt lat="42.96638" lon="-0.43929">
        <ele>635.08813476562</ele>
        <time>2015-05-10T14:57:33Z</time>
      </trkpt>
      <trkpt lat="42.96627" lon="-0.43937">
        <ele>634.607421875</ele>
        <time>2015-05-10T14:57:44Z</time>
      </trkpt>
      <trkpt lat="42.9661" lon="-0.43943">
        <ele>637.0107421875</ele>
        <time>2015-05-10T14:58:00Z</time>
      </trkpt>
      <trkpt lat="42.96606" lon="-0.43942">
        <ele>638.45288085938</ele>
        <time>2015-05-10T14:58:11Z</time>
      </trkpt>
      <trkpt lat="42.96607" lon="-0.43939">
        <ele>639.89477539062</ele>
        <time>2015-05-10T14:58:15Z</time>
      </trkpt>
      <trkpt lat="42.96594" lon="-0.43944">
        <ele>640.37548828125</ele>
        <time>2015-05-10T14:58:30Z</time>
      </trkpt>
      <trkpt lat="42.96591" lon="-0.43952">
        <ele>638.45288085938</ele>
        <time>2015-05-10T14:58:40Z</time>
      </trkpt>
      <trkpt lat="42.96579" lon="-0.43959">
        <ele>637.97216796875</ele>
        <time>2015-05-10T14:58:51Z</time>
      </trkpt>
      <trkpt lat="42.96568" lon="-0.43964">
        <ele>637.97216796875</ele>
        <time>2015-05-10T14:59:01Z</time>
      </trkpt>
      <trkpt lat="42.96554" lon="-0.43967">
        <ele>638.45288085938</ele>
        <time>2015-05-10T14:59:12Z</time>
      </trkpt>
      <trkpt lat="42.96551" lon="-0.43972">
        <ele>637.0107421875</ele>
        <time>2015-05-10T14:59:19Z</time>
      </trkpt>
      <trkpt lat="42.96535" lon="-0.43976">
        <ele>635.56860351562</ele>
        <time>2015-05-10T14:59:31Z</time>
      </trkpt>
      <trkpt lat="42.96532" lon="-0.43977">
        <ele>635.56860351562</ele>
        <time>2015-05-10T14:59:34Z</time>
      </trkpt>
      <trkpt lat="42.96521" lon="-0.43985">
        <ele>637.49145507812</ele>
        <time>2015-05-10T14:59:44Z</time>
      </trkpt>
      <trkpt lat="42.96519" lon="-0.43987">
        <ele>636.5302734375</ele>
        <time>2015-05-10T14:59:46Z</time>
      </trkpt>
      <trkpt lat="42.96514" lon="-0.43989">
        <ele>637.49145507812</ele>
        <time>2015-05-10T14:59:50Z</time>
      </trkpt>
      <trkpt lat="42.96502" lon="-0.43991">
        <ele>635.56860351562</ele>
        <time>2015-05-10T15:00:00Z</time>
      </trkpt>
      <trkpt lat="42.96493" lon="-0.4399">
        <ele>635.08813476562</ele>
        <time>2015-05-10T15:00:09Z</time>
      </trkpt>
      <trkpt lat="42.9648" lon="-0.43995">
        <ele>634.607421875</ele>
        <time>2015-05-10T15:00:19Z</time>
      </trkpt>
      <trkpt lat="42.96464" lon="-0.44002">
        <ele>635.08813476562</ele>
        <time>2015-05-10T15:00:32Z</time>
      </trkpt>
      <trkpt lat="42.96452" lon="-0.44009">
        <ele>634.607421875</ele>
        <time>2015-05-10T15:00:45Z</time>
      </trkpt>
      <trkpt lat="42.96445" lon="-0.44013">
        <ele>636.5302734375</ele>
        <time>2015-05-10T15:00:54Z</time>
      </trkpt>
      <trkpt lat="42.96434" lon="-0.44013">
        <ele>636.5302734375</ele>
        <time>2015-05-10T15:01:03Z</time>
      </trkpt>
      <trkpt lat="42.96433" lon="-0.44013">
        <ele>636.04956054688</ele>
        <time>2015-05-10T15:01:04Z</time>
      </trkpt>
      <trkpt lat="42.96426" lon="-0.44016">
        <ele>636.04956054688</ele>
        <time>2015-05-10T15:01:09Z</time>
      </trkpt>
      <trkpt lat="42.9641" lon="-0.4402">
        <ele>636.5302734375</ele>
        <time>2015-05-10T15:01:23Z</time>
      </trkpt>
      <trkpt lat="42.96404" lon="-0.44016">
        <ele>638.93359375</ele>
        <time>2015-05-10T15:01:29Z</time>
      </trkpt>
      <trkpt lat="42.96404" lon="-0.44004">
        <ele>640.85595703125</ele>
        <time>2015-05-10T15:01:38Z</time>
      </trkpt>
      <trkpt lat="42.96403" lon="-0.44004">
        <ele>641.8173828125</ele>
        <time>2015-05-10T15:01:39Z</time>
      </trkpt>
      <trkpt lat="42.96391" lon="-0.44003">
        <ele>643.73999023438</ele>
        <time>2015-05-10T15:01:50Z</time>
      </trkpt>
      <trkpt lat="42.96378" lon="-0.44003">
        <ele>644.220703125</ele>
        <time>2015-05-10T15:02:02Z</time>
      </trkpt>
      <trkpt lat="42.96372" lon="-0.44005">
        <ele>642.77880859375</ele>
        <time>2015-05-10T15:02:07Z</time>
      </trkpt>
      <trkpt lat="42.96364" lon="-0.4401">
        <ele>640.85595703125</ele>
        <time>2015-05-10T15:02:18Z</time>
      </trkpt>
      <trkpt lat="42.96363" lon="-0.44013">
        <ele>639.4140625</ele>
        <time>2015-05-10T15:02:26Z</time>
      </trkpt>
      <trkpt lat="42.96358" lon="-0.44013">
        <ele>637.97216796875</ele>
        <time>2015-05-10T15:02:31Z</time>
      </trkpt>
      <trkpt lat="42.96352" lon="-0.44014">
        <ele>636.04956054688</ele>
        <time>2015-05-10T15:02:36Z</time>
      </trkpt>
      <trkpt lat="42.96338" lon="-0.44024">
        <ele>635.08813476562</ele>
        <time>2015-05-10T15:02:49Z</time>
      </trkpt>
      <trkpt lat="42.96337" lon="-0.44021">
        <ele>633.64599609375</ele>
        <time>2015-05-10T15:02:59Z</time>
      </trkpt>
      <trkpt lat="42.96341" lon="-0.44024">
        <ele>632.68481445312</ele>
        <time>2015-05-10T15:03:08Z</time>
      </trkpt>
      <trkpt lat="42.96339" lon="-0.44027">
        <ele>631.24291992188</ele>
        <time>2015-05-10T15:03:11Z</time>
      </trkpt>
      <trkpt lat="42.96338" lon="-0.44028">
        <ele>631.24291992188</ele>
        <time>2015-05-10T15:03:12Z</time>
      </trkpt>
      <trkpt lat="42.96321" lon="-0.44028">
        <ele>630.28149414062</ele>
        <time>2015-05-10T15:03:28Z</time>
      </trkpt>
      <trkpt lat="42.96309" lon="-0.44029">
        <ele>628.83959960938</ele>
        <time>2015-05-10T15:03:41Z</time>
      </trkpt>
      <trkpt lat="42.96294" lon="-0.44032">
        <ele>625.95556640625</ele>
        <time>2015-05-10T15:03:54Z</time>
      </trkpt>
      <trkpt lat="42.96279" lon="-0.44035">
        <ele>624.99438476562</ele>
        <time>2015-05-10T15:04:08Z</time>
      </trkpt>
      <trkpt lat="42.96266" lon="-0.44037">
        <ele>625.47485351562</ele>
        <time>2015-05-10T15:04:20Z</time>
      </trkpt>
      <trkpt lat="42.9625" lon="-0.44041">
        <ele>625.47485351562</ele>
        <time>2015-05-10T15:04:33Z</time>
      </trkpt>
      <trkpt lat="42.96234" lon="-0.44045">
        <ele>625.95556640625</ele>
        <time>2015-05-10T15:04:48Z</time>
      </trkpt>
      <trkpt lat="42.96221" lon="-0.44049">
        <ele>625.95556640625</ele>
        <time>2015-05-10T15:04:59Z</time>
      </trkpt>
      <trkpt lat="42.96202" lon="-0.44054">
        <ele>625.95556640625</ele>
        <time>2015-05-10T15:05:15Z</time>
      </trkpt>
      <trkpt lat="42.96182" lon="-0.44065">
        <ele>626.9169921875</ele>
        <time>2015-05-10T15:05:32Z</time>
      </trkpt>
      <trkpt lat="42.96179" lon="-0.44066">
        <ele>626.9169921875</ele>
        <time>2015-05-10T15:05:34Z</time>
      </trkpt>
      <trkpt lat="42.96161" lon="-0.44062">
        <ele>626.9169921875</ele>
        <time>2015-05-10T15:05:49Z</time>
      </trkpt>
      <trkpt lat="42.9615" lon="-0.44059">
        <ele>627.39770507812</ele>
        <time>2015-05-10T15:05:59Z</time>
      </trkpt>
      <trkpt lat="42.96143" lon="-0.44059">
        <ele>626.9169921875</ele>
        <time>2015-05-10T15:06:04Z</time>
      </trkpt>
      <trkpt lat="42.96137" lon="-0.44058">
        <ele>627.39770507812</ele>
        <time>2015-05-10T15:06:09Z</time>
      </trkpt>
      <trkpt lat="42.96132" lon="-0.44059">
        <ele>626.43627929688</ele>
        <time>2015-05-10T15:06:13Z</time>
      </trkpt>
      <trkpt lat="42.96127" lon="-0.4406">
        <ele>625.95556640625</ele>
        <time>2015-05-10T15:06:17Z</time>
      </trkpt>
      <trkpt lat="42.96114" lon="-0.44054">
        <ele>625.47485351562</ele>
        <time>2015-05-10T15:06:28Z</time>
      </trkpt>
      <trkpt lat="42.96109" lon="-0.4405">
        <ele>625.47485351562</ele>
        <time>2015-05-10T15:06:34Z</time>
      </trkpt>
      <trkpt lat="42.96106" lon="-0.44051">
        <ele>625.47485351562</ele>
        <time>2015-05-10T15:06:36Z</time>
      </trkpt>
      <trkpt lat="42.96096" lon="-0.44048">
        <ele>625.47485351562</ele>
        <time>2015-05-10T15:06:45Z</time>
      </trkpt>
      <trkpt lat="42.96086" lon="-0.44041">
        <ele>626.43627929688</ele>
        <time>2015-05-10T15:06:55Z</time>
      </trkpt>
      <trkpt lat="42.96077" lon="-0.44042">
        <ele>626.43627929688</ele>
        <time>2015-05-10T15:07:03Z</time>
      </trkpt>
      <trkpt lat="42.96066" lon="-0.44052">
        <ele>625.47485351562</ele>
        <time>2015-05-10T15:07:10Z</time>
      </trkpt>
      <trkpt lat="42.96054" lon="-0.44054">
        <ele>626.43627929688</ele>
        <time>2015-05-10T15:07:20Z</time>
      </trkpt>
      <trkpt lat="42.9604" lon="-0.44056">
        <ele>626.9169921875</ele>
        <time>2015-05-10T15:07:30Z</time>
      </trkpt>
      <trkpt lat="42.96039" lon="-0.44056">
        <ele>626.9169921875</ele>
        <time>2015-05-10T15:07:31Z</time>
      </trkpt>
      <trkpt lat="42.96028" lon="-0.44058">
        <ele>627.39770507812</ele>
        <time>2015-05-10T15:07:41Z</time>
      </trkpt>
      <trkpt lat="42.96026" lon="-0.44058">
        <ele>627.87817382812</ele>
        <time>2015-05-10T15:07:43Z</time>
      </trkpt>
      <trkpt lat="42.96015" lon="-0.44056">
        <ele>628.83959960938</ele>
        <time>2015-05-10T15:07:51Z</time>
      </trkpt>
      <trkpt lat="42.96006" lon="-0.44057">
        <ele>628.83959960938</ele>
        <time>2015-05-10T15:07:58Z</time>
      </trkpt>
      <trkpt lat="42.96001" lon="-0.44051">
        <ele>629.80078125</ele>
        <time>2015-05-10T15:08:05Z</time>
      </trkpt>
      <trkpt lat="42.95989" lon="-0.44047">
        <ele>629.80078125</ele>
        <time>2015-05-10T15:08:15Z</time>
      </trkpt>
      <trkpt lat="42.95985" lon="-0.44044">
        <ele>630.76220703125</ele>
        <time>2015-05-10T15:08:19Z</time>
      </trkpt>
      <trkpt lat="42.95982" lon="-0.44042">
        <ele>630.28149414062</ele>
        <time>2015-05-10T15:08:21Z</time>
      </trkpt>
      <trkpt lat="42.95972" lon="-0.4404">
        <ele>630.28149414062</ele>
        <time>2015-05-10T15:08:29Z</time>
      </trkpt>
      <trkpt lat="42.95966" lon="-0.44043">
        <ele>630.28149414062</ele>
        <time>2015-05-10T15:08:35Z</time>
      </trkpt>
      <trkpt lat="42.95958" lon="-0.44042">
        <ele>631.24291992188</ele>
        <time>2015-05-10T15:08:42Z</time>
      </trkpt>
      <trkpt lat="42.95945" lon="-0.44049">
        <ele>630.28149414062</ele>
        <time>2015-05-10T15:08:53Z</time>
      </trkpt>
      <trkpt lat="42.95938" lon="-0.44061">
        <ele>630.28149414062</ele>
        <time>2015-05-10T15:09:02Z</time>
      </trkpt>
      <trkpt lat="42.95914" lon="-0.44077">
        <ele>631.72338867188</ele>
        <time>2015-05-10T15:09:25Z</time>
      </trkpt>
      <trkpt lat="42.95898" lon="-0.44067">
        <ele>633.16528320312</ele>
        <time>2015-05-10T15:09:33Z</time>
      </trkpt>
      <trkpt lat="42.95889" lon="-0.44062">
        <ele>632.68481445312</ele>
        <time>2015-05-10T15:09:42Z</time>
      </trkpt>
      <trkpt lat="42.95887" lon="-0.44061">
        <ele>633.16528320312</ele>
        <time>2015-05-10T15:09:44Z</time>
      </trkpt>
      <trkpt lat="42.95862" lon="-0.44055">
        <ele>635.56860351562</ele>
        <time>2015-05-10T15:10:08Z</time>
      </trkpt>
      <trkpt lat="42.95844" lon="-0.44059">
        <ele>634.607421875</ele>
        <time>2015-05-10T15:10:26Z</time>
      </trkpt>
      <trkpt lat="42.9583" lon="-0.44074">
        <ele>635.08813476562</ele>
        <time>2015-05-10T15:10:40Z</time>
      </trkpt>
      <trkpt lat="42.95822" lon="-0.44083">
        <ele>635.56860351562</ele>
        <time>2015-05-10T15:10:46Z</time>
      </trkpt>
      <trkpt lat="42.95816" lon="-0.44089">
        <ele>635.56860351562</ele>
        <time>2015-05-10T15:10:50Z</time>
      </trkpt>
      <trkpt lat="42.95797" lon="-0.44074">
        <ele>636.5302734375</ele>
        <time>2015-05-10T15:11:02Z</time>
      </trkpt>
      <trkpt lat="42.95788" lon="-0.44062">
        <ele>637.49145507812</ele>
        <time>2015-05-10T15:11:10Z</time>
      </trkpt>
      <trkpt lat="42.95781" lon="-0.44057">
        <ele>637.97216796875</ele>
        <time>2015-05-10T15:11:15Z</time>
      </trkpt>
      <trkpt lat="42.95774" lon="-0.44062">
        <ele>638.45288085938</ele>
        <time>2015-05-10T15:11:20Z</time>
      </trkpt>
      <trkpt lat="42.95756" lon="-0.44046">
        <ele>640.37548828125</ele>
        <time>2015-05-10T15:11:34Z</time>
      </trkpt>
      <trkpt lat="42.95751" lon="-0.44054">
        <ele>640.85595703125</ele>
        <time>2015-05-10T15:11:40Z</time>
      </trkpt>
      <trkpt lat="42.9574" lon="-0.44056">
        <ele>642.29809570312</ele>
        <time>2015-05-10T15:11:53Z</time>
      </trkpt>
      <trkpt lat="42.95728" lon="-0.44057">
        <ele>642.77880859375</ele>
        <time>2015-05-10T15:12:06Z</time>
      </trkpt>
      <trkpt lat="42.95714" lon="-0.44052">
        <ele>642.77880859375</ele>
        <time>2015-05-10T15:12:20Z</time>
      </trkpt>
      <trkpt lat="42.95712" lon="-0.44052">
        <ele>642.29809570312</ele>
        <time>2015-05-10T15:12:22Z</time>
      </trkpt>
      <trkpt lat="42.95694" lon="-0.44037">
        <ele>642.29809570312</ele>
        <time>2015-05-10T15:12:38Z</time>
      </trkpt>
      <trkpt lat="42.9568" lon="-0.44037">
        <ele>642.77880859375</ele>
        <time>2015-05-10T15:12:52Z</time>
      </trkpt>
      <trkpt lat="42.95671" lon="-0.44036">
        <ele>642.77880859375</ele>
        <time>2015-05-10T15:13:00Z</time>
      </trkpt>
      <trkpt lat="42.95654" lon="-0.44045">
        <ele>643.25927734375</ele>
        <time>2015-05-10T15:13:14Z</time>
      </trkpt>
      <trkpt lat="42.95642" lon="-0.4404">
        <ele>644.220703125</ele>
        <time>2015-05-10T15:13:26Z</time>
      </trkpt>
      <trkpt lat="42.95631" lon="-0.43983">
        <ele>645.66259765625</ele>
        <time>2015-05-10T15:13:35Z</time>
      </trkpt>
      <trkpt lat="42.95637" lon="-0.4394">
        <ele>646.14331054688</ele>
        <time>2015-05-10T15:13:40Z</time>
      </trkpt>
      <trkpt lat="42.95642" lon="-0.43966">
        <ele>647.1044921875</ele>
        <time>2015-05-10T15:13:50Z</time>
      </trkpt>
      <trkpt lat="42.95635" lon="-0.43984">
        <ele>650.46923828125</ele>
        <time>2015-05-10T15:14:00Z</time>
      </trkpt>
      <trkpt lat="42.95635" lon="-0.43989">
        <ele>652.87255859375</ele>
        <time>2015-05-10T15:14:04Z</time>
      </trkpt>
      <trkpt lat="42.9563" lon="-0.43991">
        <ele>655.27587890625</ele>
        <time>2015-05-10T15:14:10Z</time>
      </trkpt>
      <trkpt lat="42.95628" lon="-0.43989">
        <ele>656.7177734375</ele>
        <time>2015-05-10T15:14:14Z</time>
      </trkpt>
      <trkpt lat="42.95616" lon="-0.43984">
        <ele>658.64038085938</ele>
        <time>2015-05-10T15:14:34Z</time>
      </trkpt>
      <trkpt lat="42.95612" lon="-0.4398">
        <ele>660.56298828125</ele>
        <time>2015-05-10T15:14:40Z</time>
      </trkpt>
      <trkpt lat="42.95601" lon="-0.43972">
        <ele>662.96630859375</ele>
        <time>2015-05-10T15:14:51Z</time>
      </trkpt>
      <trkpt lat="42.95592" lon="-0.43966">
        <ele>665.36962890625</ele>
        <time>2015-05-10T15:15:01Z</time>
      </trkpt>
      <trkpt lat="42.95578" lon="-0.43956">
        <ele>665.85034179688</ele>
        <time>2015-05-10T15:15:14Z</time>
      </trkpt>
      <trkpt lat="42.95558" lon="-0.43948">
        <ele>666.8115234375</ele>
        <time>2015-05-10T15:15:30Z</time>
      </trkpt>
      <trkpt lat="42.95544" lon="-0.43943">
        <ele>667.77270507812</ele>
        <time>2015-05-10T15:15:42Z</time>
      </trkpt>
      <trkpt lat="42.95535" lon="-0.43941">
        <ele>668.25366210938</ele>
        <time>2015-05-10T15:15:49Z</time>
      </trkpt>
      <trkpt lat="42.95529" lon="-0.43941">
        <ele>669.21508789062</ele>
        <time>2015-05-10T15:15:53Z</time>
      </trkpt>
      <trkpt lat="42.95511" lon="-0.43949">
        <ele>668.25366210938</ele>
        <time>2015-05-10T15:16:09Z</time>
      </trkpt>
      <trkpt lat="42.95494" lon="-0.43963">
        <ele>669.69580078125</ele>
        <time>2015-05-10T15:16:26Z</time>
      </trkpt>
      <trkpt lat="42.95475" lon="-0.43985">
        <ele>671.1376953125</ele>
        <time>2015-05-10T15:16:41Z</time>
      </trkpt>
      <trkpt lat="42.95449" lon="-0.43982">
        <ele>672.09887695312</ele>
        <time>2015-05-10T15:17:01Z</time>
      </trkpt>
      <trkpt lat="42.95429" lon="-0.43948">
        <ele>670.65698242188</ele>
        <time>2015-05-10T15:17:19Z</time>
      </trkpt>
      <trkpt lat="42.95413" lon="-0.4393">
        <ele>669.69580078125</ele>
        <time>2015-05-10T15:17:32Z</time>
      </trkpt>
      <trkpt lat="42.95393" lon="-0.4393">
        <ele>668.25366210938</ele>
        <time>2015-05-10T15:17:47Z</time>
      </trkpt>
      <trkpt lat="42.95376" lon="-0.43931">
        <ele>670.17626953125</ele>
        <time>2015-05-10T15:17:59Z</time>
      </trkpt>
      <trkpt lat="42.95374" lon="-0.43931">
        <ele>670.17626953125</ele>
        <time>2015-05-10T15:18:00Z</time>
      </trkpt>
      <trkpt lat="42.95358" lon="-0.43932">
        <ele>670.65698242188</ele>
        <time>2015-05-10T15:18:12Z</time>
      </trkpt>
      <trkpt lat="42.95339" lon="-0.4392">
        <ele>672.09887695312</ele>
        <time>2015-05-10T15:18:23Z</time>
      </trkpt>
      <trkpt lat="42.95322" lon="-0.43932">
        <ele>673.06030273438</ele>
        <time>2015-05-10T15:18:37Z</time>
      </trkpt>
      <trkpt lat="42.95314" lon="-0.43952">
        <ele>674.021484375</ele>
        <time>2015-05-10T15:18:49Z</time>
      </trkpt>
      <trkpt lat="42.95312" lon="-0.43958">
        <ele>673.541015625</ele>
        <time>2015-05-10T15:19:08Z</time>
      </trkpt>
    </trkseg>
  </trk>
</gpx>